Home > Products > Valid Products > TAF

000
FTUS42 KMFL 011720
TAFAPF
TAF
KAPF 011720Z 0118/0218 16009KT P6SM SCT030 BKN040
     FM011900 21010KT P6SM VCSH SCT030 SCT250
     FM020100 VRB03KT P6SM FEW035 BKN250
     FM021600 22007KT P6SM VCSH SCT030=



000
FTUS42 KMFL 011720
TAFPBI
TAF
KPBI 011720Z 0118/0218 12012KT P6SM VCTS SCT027CB SCT050
     FM020000 13005KT P6SM FEW025 SCT250
     FM021500 11009KT P6SM VCSH SCT030=



000
FTUS42 KMFL 011720
TAFFLL
TAF
KFLL 011720Z 0118/0218 13013KT P6SM FEW025
     FM020200 13004KT P6SM FEW025 SCT250
     FM021500 11009KT P6SM VCSH SCT030=



000
FTUS42 KMFL 011720
TAFPBI
TAF
KPBI 011720Z 0118/0218 12012KT P6SM VCTS SCT027CB SCT050
     FM020000 13005KT P6SM FEW025 SCT250
     FM021500 11009KT P6SM VCSH SCT030=



000
FTUS42 KMFL 011720
TAFMIA
TAF
KMIA 011720Z 0118/0218 12009KT P6SM FEW030
     FM020100 13004KT P6SM FEW025 SCT250
     FM021500 12007KT P6SM VCSH SCT030=



000
FTUS42 KMFL 011720
TAFMIA
TAF
KMIA 011720Z 0118/0218 12009KT P6SM FEW030
     FM020100 13004KT P6SM FEW025 SCT250
     FM021500 12007KT P6SM VCSH SCT030=



000
FTUS42 KMFL 011720
TAFAPF
TAF
KAPF 011720Z 0118/0218 16009KT P6SM SCT030 BKN040
     FM011900 21010KT P6SM VCSH SCT030 SCT250
     FM020100 VRB03KT P6SM FEW035 BKN250
     FM021600 22007KT P6SM VCSH SCT030=



000
FTUS42 KMFL 011720
TAFMIA
TAF
KMIA 011720Z 0118/0218 12009KT P6SM FEW030
     FM020100 13004KT P6SM FEW025 SCT250
     FM021500 12007KT P6SM VCSH SCT030=



000
FTUS42 KMFL 011720
TAFPBI
TAF
KPBI 011720Z 0118/0218 12012KT P6SM VCTS SCT027CB SCT050
     FM020000 13005KT P6SM FEW025 SCT250
     FM021500 11009KT P6SM VCSH SCT030=



000
FTUS42 KMFL 011720
TAFFLL
TAF
KFLL 011720Z 0118/0218 13013KT P6SM FEW025
     FM020200 13004KT P6SM FEW025 SCT250
     FM021500 11009KT P6SM VCSH SCT030=



000
FTUS42 KMFL 011720
TAFFLL
TAF
KFLL 011720Z 0118/0218 13013KT P6SM FEW025
     FM020200 13004KT P6SM FEW025 SCT250
     FM021500 11009KT P6SM VCSH SCT030=



000
FTUS42 KMFL 011720
TAFAPF
TAF
KAPF 011720Z 0118/0218 16009KT P6SM SCT030 BKN040
     FM011900 21010KT P6SM VCSH SCT030 SCT250
     FM020100 VRB03KT P6SM FEW035 BKN250
     FM021600 22007KT P6SM VCSH SCT030=



000
FTUS42 KMFL 011720
TAFPBI
TAF
KPBI 011720Z 0118/0218 12012KT P6SM VCTS SCT027CB SCT050
     FM020000 13005KT P6SM FEW025 SCT250
     FM021500 11009KT P6SM VCSH SCT030=



000
FTUS42 KMFL 011720
TAFMIA
TAF
KMIA 011720Z 0118/0218 12009KT P6SM FEW030
     FM020100 13004KT P6SM FEW025 SCT250
     FM021500 12007KT P6SM VCSH SCT030=



000
FTUS42 KMFL 011720
TAFFLL
TAF
KFLL 011720Z 0118/0218 13013KT P6SM FEW025
     FM020200 13004KT P6SM FEW025 SCT250
     FM021500 11009KT P6SM VCSH SCT030=



000
FTUS42 KMFL 011720
TAFAPF
TAF
KAPF 011720Z 0118/0218 16009KT P6SM SCT030 BKN040
     FM011900 21010KT P6SM VCSH SCT030 SCT250
     FM020100 VRB03KT P6SM FEW035 BKN250
     FM021600 22007KT P6SM VCSH SCT030=



000
FTUS42 KMFL 011509 AAA
TAFMIA
TAF AMD
KMIA 011509Z 0115/0212 12008KT P6SM VCSH SCT030 BKN050
     FM011600 13006KT P6SM VCSH SCT030 SCT250
     FM020100 13004KT P6SM FEW025 SCT250=



000
FTUS42 KMFL 011509 AAA
TAFMIA
TAF AMD
KMIA 011509Z 0115/0212 12008KT P6SM VCSH SCT030 BKN050
     FM011600 13006KT P6SM VCSH SCT030 SCT250
     FM020100 13004KT P6SM FEW025 SCT250=



000
FTUS42 KMFL 011509 AAA
TAFPBI
TAF AMD
KPBI 011509Z 0115/0212 15005KT P6SM VCSH SCT030 SCT050
     FM011600 13010KT P6SM VCSH SCT030
     FM020300 13004KT P6SM FEW025 SCT250=



000
FTUS42 KMFL 011509 AAA
TAFFLL
TAF AMD
KFLL 011509Z 0115/0212 12013KT P6SM VCSH SCT025
     FM020200 13004KT P6SM FEW025 SCT250=



000
FTUS42 KMFL 011509 AAA
TAFPBI
TAF AMD
KPBI 011509Z 0115/0212 15005KT P6SM VCSH SCT030 SCT050
     FM011600 13010KT P6SM VCSH SCT030
     FM020300 13004KT P6SM FEW025 SCT250=



000
FTUS42 KMFL 011509 AAA
TAFFLL
TAF AMD
KFLL 011509Z 0115/0212 12013KT P6SM VCSH SCT025
     FM020200 13004KT P6SM FEW025 SCT250=



000
FTUS42 KMFL 011509 AAA
TAFAPF
TAF AMD
KAPF 011509Z 0115/0212 12007KT P6SM SKC
     FM011700 21010KT P6SM VCSH SCT030 SCT250
     FM020100 VRB03KT P6SM FEW035 BKN250=



000
FTUS42 KMFL 011509 AAA
TAFPBI
TAF AMD
KPBI 011509Z 0115/0212 15005KT P6SM VCSH SCT030 SCT050
     FM011600 13010KT P6SM VCSH SCT030
     FM020300 13004KT P6SM FEW025 SCT250=



000
FTUS42 KMFL 011509 AAA
TAFMIA
TAF AMD
KMIA 011509Z 0115/0212 12008KT P6SM VCSH SCT030 BKN050
     FM011600 13006KT P6SM VCSH SCT030 SCT250
     FM020100 13004KT P6SM FEW025 SCT250=



000
FTUS42 KMFL 011509 AAA
TAFAPF
TAF AMD
KAPF 011509Z 0115/0212 12007KT P6SM SKC
     FM011700 21010KT P6SM VCSH SCT030 SCT250
     FM020100 VRB03KT P6SM FEW035 BKN250=



000
FTUS42 KMFL 011509 AAA
TAFFLL
TAF AMD
KFLL 011509Z 0115/0212 12013KT P6SM VCSH SCT025
     FM020200 13004KT P6SM FEW025 SCT250=



000
FTUS42 KMFL 011509 AAA
TAFAPF
TAF AMD
KAPF 011509Z 0115/0212 12007KT P6SM SKC
     FM011700 21010KT P6SM VCSH SCT030 SCT250
     FM020100 VRB03KT P6SM FEW035 BKN250=



000
FTUS42 KMFL 011509 AAA
TAFAPF
TAF AMD
KAPF 011509Z 0115/0212 12007KT P6SM SKC
     FM011700 21010KT P6SM VCSH SCT030 SCT250
     FM020100 VRB03KT P6SM FEW035 BKN250=



000
FTUS42 KMFL 011509 AAA
TAFFLL
TAF AMD
KFLL 011509Z 0115/0212 12013KT P6SM VCSH SCT025
     FM020200 13004KT P6SM FEW025 SCT250=



000
FTUS42 KMFL 011509 AAA
TAFPBI
TAF AMD
KPBI 011509Z 0115/0212 15005KT P6SM VCSH SCT030 SCT050
     FM011600 13010KT P6SM VCSH SCT030
     FM020300 13004KT P6SM FEW025 SCT250=



000
FTUS42 KMFL 011120
TAFMIA
TAF
KMIA 011120Z 0112/0212 13005KT P6SM VCSH SCT025 SCT250
     FM011600 13006KT P6SM VCSH SCT030 SCT250
     FM020100 13004KT P6SM FEW025 SCT250=



000
FTUS42 KMFL 011120
TAFMIA
TAF
KMIA 011120Z 0112/0212 13005KT P6SM VCSH SCT025 SCT250
     FM011600 13006KT P6SM VCSH SCT030 SCT250
     FM020100 13004KT P6SM FEW025 SCT250=



000
FTUS42 KMFL 011120
TAFPBI
TAF
KPBI 011120Z 0112/0212 14005KT P6SM VCSH SCT022 SCT250
     FM011600 13010KT P6SM VCSH SCT030
     FM020300 13004KT P6SM FEW025 SCT250=



000
FTUS42 KMFL 011120
TAFAPF
TAF
KAPF 011120Z 0112/0212 12005KT P6SM SKC
     FM011700 21010KT P6SM VCSH SCT030 SCT250
     FM020100 VRB03KT P6SM FEW035 BKN250=



000
FTUS42 KMFL 011120
TAFAPF
TAF
KAPF 011120Z 0112/0212 12005KT P6SM SKC
     FM011700 21010KT P6SM VCSH SCT030 SCT250
     FM020100 VRB03KT P6SM FEW035 BKN250=



000
FTUS42 KMFL 011120
TAFFLL
TAF
KFLL 011120Z 0112/0212 13005KT P6SM VCSH SCT020
     FM011500 13010KT P6SM SCT030 SCT250
     FM020200 13004KT P6SM FEW025 SCT250=



000
FTUS42 KMFL 011120
TAFFLL
TAF
KFLL 011120Z 0112/0212 13005KT P6SM VCSH SCT020
     FM011500 13010KT P6SM SCT030 SCT250
     FM020200 13004KT P6SM FEW025 SCT250=



000
FTUS42 KMFL 011120
TAFAPF
TAF
KAPF 011120Z 0112/0212 12005KT P6SM SKC
     FM011700 21010KT P6SM VCSH SCT030 SCT250
     FM020100 VRB03KT P6SM FEW035 BKN250=



000
FTUS42 KMFL 011120
TAFPBI
TAF
KPBI 011120Z 0112/0212 14005KT P6SM VCSH SCT022 SCT250
     FM011600 13010KT P6SM VCSH SCT030
     FM020300 13004KT P6SM FEW025 SCT250=



000
FTUS42 KMFL 011120
TAFPBI
TAF
KPBI 011120Z 0112/0212 14005KT P6SM VCSH SCT022 SCT250
     FM011600 13010KT P6SM VCSH SCT030
     FM020300 13004KT P6SM FEW025 SCT250=



000
FTUS42 KMFL 011120
TAFMIA
TAF
KMIA 011120Z 0112/0212 13005KT P6SM VCSH SCT025 SCT250
     FM011600 13006KT P6SM VCSH SCT030 SCT250
     FM020100 13004KT P6SM FEW025 SCT250=



000
FTUS42 KMFL 011120
TAFFLL
TAF
KFLL 011120Z 0112/0212 13005KT P6SM VCSH SCT020
     FM011500 13010KT P6SM SCT030 SCT250
     FM020200 13004KT P6SM FEW025 SCT250=



000
FTUS42 KMFL 011120
TAFFLL
TAF
KFLL 011120Z 0112/0212 13005KT P6SM VCSH SCT020
     FM011500 13010KT P6SM SCT030 SCT250
     FM020200 13004KT P6SM FEW025 SCT250=



000
FTUS42 KMFL 011120
TAFMIA
TAF
KMIA 011120Z 0112/0212 13005KT P6SM VCSH SCT025 SCT250
     FM011600 13006KT P6SM VCSH SCT030 SCT250
     FM020100 13004KT P6SM FEW025 SCT250=



000
FTUS42 KMFL 011120
TAFPBI
TAF
KPBI 011120Z 0112/0212 14005KT P6SM VCSH SCT022 SCT250
     FM011600 13010KT P6SM VCSH SCT030
     FM020300 13004KT P6SM FEW025 SCT250=



000
FTUS42 KMFL 011120
TAFAPF
TAF
KAPF 011120Z 0112/0212 12005KT P6SM SKC
     FM011700 21010KT P6SM VCSH SCT030 SCT250
     FM020100 VRB03KT P6SM FEW035 BKN250=



000
FTUS42 KMFL 011108 AAB
TAFFLL
TAF AMD
KFLL 011108Z 0111/0206 13005KT P6SM VCSH SCT020
     FM011500 13010KT P6SM SCT030 SCT250
     FM020200 13004KT P6SM FEW025 SCT250=



000
FTUS42 KMFL 011108 AAB
TAFFLL
TAF AMD
KFLL 011108Z 0111/0206 13005KT P6SM VCSH SCT020
     FM011500 13010KT P6SM SCT030 SCT250
     FM020200 13004KT P6SM FEW025 SCT250=



000
FTUS42 KMFL 011108 AAB
TAFPBI
TAF AMD
KPBI 011108Z 0111/0206 14005KT P6SM VCSH SCT022 SCT250
     FM011600 13010KT P6SM VCSH SCT030
     FM020300 13004KT P6SM FEW025 SCT250=



000
FTUS42 KMFL 011108 AAB
TAFPBI
TAF AMD
KPBI 011108Z 0111/0206 14005KT P6SM VCSH SCT022 SCT250
     FM011600 13010KT P6SM VCSH SCT030
     FM020300 13004KT P6SM FEW025 SCT250=



000
FTUS42 KMFL 011108 AAB
TAFFLL
TAF AMD
KFLL 011108Z 0111/0206 13005KT P6SM VCSH SCT020
     FM011500 13010KT P6SM SCT030 SCT250
     FM020200 13004KT P6SM FEW025 SCT250=



000
FTUS42 KMFL 011108 AAB
TAFFLL
TAF AMD
KFLL 011108Z 0111/0206 13005KT P6SM VCSH SCT020
     FM011500 13010KT P6SM SCT030 SCT250
     FM020200 13004KT P6SM FEW025 SCT250=



000
FTUS42 KMFL 011108 AAB
TAFPBI
TAF AMD
KPBI 011108Z 0111/0206 14005KT P6SM VCSH SCT022 SCT250
     FM011600 13010KT P6SM VCSH SCT030
     FM020300 13004KT P6SM FEW025 SCT250=



000
FTUS42 KMFL 011108 AAB
TAFPBI
TAF AMD
KPBI 011108Z 0111/0206 14005KT P6SM VCSH SCT022 SCT250
     FM011600 13010KT P6SM VCSH SCT030
     FM020300 13004KT P6SM FEW025 SCT250=



000
FTUS42 KMFL 010910 AAA
TAFFLL
TAF AMD
KFLL 010910Z 0109/0206 VRB03KT P6SM SCT020
     FM011500 13010KT P6SM SCT030 SCT250
     FM020200 13004KT P6SM FEW025 SCT250=



000
FTUS42 KMFL 010910 AAA
TAFMIA
TAF AMD
KMIA 010910Z 0109/0206 VRB02KT P6SM SCT025 SCT250
     FM011600 13006KT P6SM VCSH SCT030 SCT250
     FM020100 13004KT P6SM FEW025 SCT250=



000
FTUS42 KMFL 010910 AAA
TAFPBI
TAF AMD
KPBI 010910Z 0109/0206 VRB03KT P6SM FEW025 SCT250
     FM011600 13010KT P6SM VCSH SCT030
     FM020300 13004KT P6SM FEW025 SCT250=



000
FTUS42 KMFL 010910 AAA
TAFAPF
TAF AMD
KAPF 010910Z 0109/0206 12005KT P6SM SKC
     FM011700 21010KT P6SM VCSH SCT030 SCT250
     FM020100 VRB03KT P6SM FEW035 BKN250=



000
FTUS42 KMFL 010910 AAA
TAFAPF
TAF AMD
KAPF 010910Z 0109/0206 12005KT P6SM SKC
     FM011700 21010KT P6SM VCSH SCT030 SCT250
     FM020100 VRB03KT P6SM FEW035 BKN250=



000
FTUS42 KMFL 010910 AAA
TAFPBI
TAF AMD
KPBI 010910Z 0109/0206 VRB03KT P6SM FEW025 SCT250
     FM011600 13010KT P6SM VCSH SCT030
     FM020300 13004KT P6SM FEW025 SCT250=



000
FTUS42 KMFL 010910 AAA
TAFPBI
TAF AMD
KPBI 010910Z 0109/0206 VRB03KT P6SM FEW025 SCT250
     FM011600 13010KT P6SM VCSH SCT030
     FM020300 13004KT P6SM FEW025 SCT250=



000
FTUS42 KMFL 010910 AAA
TAFFLL
TAF AMD
KFLL 010910Z 0109/0206 VRB03KT P6SM SCT020
     FM011500 13010KT P6SM SCT030 SCT250
     FM020200 13004KT P6SM FEW025 SCT250=



000
FTUS42 KMFL 010910 AAA
TAFFLL
TAF AMD
KFLL 010910Z 0109/0206 VRB03KT P6SM SCT020
     FM011500 13010KT P6SM SCT030 SCT250
     FM020200 13004KT P6SM FEW025 SCT250=



000
FTUS42 KMFL 010910 AAA
TAFMIA
TAF AMD
KMIA 010910Z 0109/0206 VRB02KT P6SM SCT025 SCT250
     FM011600 13006KT P6SM VCSH SCT030 SCT250
     FM020100 13004KT P6SM FEW025 SCT250=



000
FTUS42 KMFL 010910 AAA
TAFAPF
TAF AMD
KAPF 010910Z 0109/0206 12005KT P6SM SKC
     FM011700 21010KT P6SM VCSH SCT030 SCT250
     FM020100 VRB03KT P6SM FEW035 BKN250=



000
FTUS42 KMFL 010910 AAA
TAFMIA
TAF AMD
KMIA 010910Z 0109/0206 VRB02KT P6SM SCT025 SCT250
     FM011600 13006KT P6SM VCSH SCT030 SCT250
     FM020100 13004KT P6SM FEW025 SCT250=



000
FTUS42 KMFL 010910 AAA
TAFAPF
TAF AMD
KAPF 010910Z 0109/0206 12005KT P6SM SKC
     FM011700 21010KT P6SM VCSH SCT030 SCT250
     FM020100 VRB03KT P6SM FEW035 BKN250=



000
FTUS42 KMFL 010531
TAFAPF
TAF
KAPF 010531Z 0106/0206 10002KT P6SM FEW250
     FM011700 21010KT P6SM VCSH SCT030 SCT250
     FM020100 VRB03KT P6SM FEW035 BKN250=



000
FTUS42 KMFL 010531
TAFFLL
TAF
KFLL 010531Z 0106/0206 VRB03KT P6SM FEW025 SCT250
     FM011500 13010KT P6SM SCT030 SCT250
     FM020200 13004KT P6SM FEW025 SCT250=



000
FTUS42 KMFL 010531
TAFPBI
TAF
KPBI 010531Z 0106/0206 VRB02KT P6SM FEW025 SCT250
     FM011600 13010KT P6SM VCSH SCT030
     FM020300 13004KT P6SM FEW025 SCT250=



000
FTUS42 KMFL 010531
TAFMIA
TAF
KMIA 010531Z 0106/0206 VRB03KT P6SM FEW025 SCT250
     FM011600 13006KT P6SM VCSH SCT030 SCT250
     FM020100 13004KT P6SM FEW025 SCT250=



000
FTUS42 KMFL 010531
TAFFLL
TAF
KFLL 010531Z 0106/0206 VRB03KT P6SM FEW025 SCT250
     FM011500 13010KT P6SM SCT030 SCT250
     FM020200 13004KT P6SM FEW025 SCT250=



000
FTUS42 KMFL 010531
TAFPBI
TAF
KPBI 010531Z 0106/0206 VRB02KT P6SM FEW025 SCT250
     FM011600 13010KT P6SM VCSH SCT030
     FM020300 13004KT P6SM FEW025 SCT250=



000
FTUS42 KMFL 010531
TAFMIA
TAF
KMIA 010531Z 0106/0206 VRB03KT P6SM FEW025 SCT250
     FM011600 13006KT P6SM VCSH SCT030 SCT250
     FM020100 13004KT P6SM FEW025 SCT250=



000
FTUS42 KMFL 010531
TAFAPF
TAF
KAPF 010531Z 0106/0206 10002KT P6SM FEW250
     FM011700 21010KT P6SM VCSH SCT030 SCT250
     FM020100 VRB03KT P6SM FEW035 BKN250=



000
FTUS42 KMFL 010531
TAFPBI
TAF
KPBI 010531Z 0106/0206 VRB02KT P6SM FEW025 SCT250
     FM011600 13010KT P6SM VCSH SCT030
     FM020300 13004KT P6SM FEW025 SCT250=



000
FTUS42 KMFL 010531
TAFMIA
TAF
KMIA 010531Z 0106/0206 VRB03KT P6SM FEW025 SCT250
     FM011600 13006KT P6SM VCSH SCT030 SCT250
     FM020100 13004KT P6SM FEW025 SCT250=



000
FTUS42 KMFL 010531
TAFAPF
TAF
KAPF 010531Z 0106/0206 10002KT P6SM FEW250
     FM011700 21010KT P6SM VCSH SCT030 SCT250
     FM020100 VRB03KT P6SM FEW035 BKN250=



000
FTUS42 KMFL 010531
TAFFLL
TAF
KFLL 010531Z 0106/0206 VRB03KT P6SM FEW025 SCT250
     FM011500 13010KT P6SM SCT030 SCT250
     FM020200 13004KT P6SM FEW025 SCT250=



000
FTUS42 KMFL 010327 AAA
TAFFLL
TAF AMD
KFLL 010327Z 0103/0124 VRB03KT P6SM FEW025 BKN250
     FM011500 13010KT P6SM SCT030 SCT250=



000
FTUS42 KMFL 010327 AAA
TAFPBI
TAF AMD
KPBI 010327Z 0103/0124 VRB03KT P6SM SCT025
     FM011600 13010KT P6SM VCSH SCT030=



000
FTUS42 KMFL 010327 AAA
TAFAPF
TAF AMD
KAPF 010327Z 0103/0124 12004KT P6SM SCT250
     FM011600 21010KT P6SM VCSH SCT030 SCT250=



000
FTUS42 KMFL 010327 AAA
TAFMIA
TAF AMD
KMIA 010327Z 0103/0124 31003KT P6SM FEW030 BKN250
     FM011600 13006KT P6SM VCSH SCT030 SCT250=



000
FTUS42 KMFL 010327 AAA
TAFFLL
TAF AMD
KFLL 010327Z 0103/0124 VRB03KT P6SM FEW025 BKN250
     FM011500 13010KT P6SM SCT030 SCT250=



000
FTUS42 KMFL 010327 AAA
TAFMIA
TAF AMD
KMIA 010327Z 0103/0124 31003KT P6SM FEW030 BKN250
     FM011600 13006KT P6SM VCSH SCT030 SCT250=



000
FTUS42 KMFL 010327 AAA
TAFAPF
TAF AMD
KAPF 010327Z 0103/0124 12004KT P6SM SCT250
     FM011600 21010KT P6SM VCSH SCT030 SCT250=



000
FTUS42 KMFL 010327 AAA
TAFPBI
TAF AMD
KPBI 010327Z 0103/0124 VRB03KT P6SM SCT025
     FM011600 13010KT P6SM VCSH SCT030=



000
FTUS42 KMFL 312333
TAFPBI
TAF
KPBI 312333Z 0100/0124 14004KT P6SM SCT040 SCT150
     FM010600 00000KT P6SM SKC
     FM011600 13010KT P6SM VCSH SCT030=



000
FTUS42 KMFL 312333
TAFFLL
TAF
KFLL 312333Z 0100/0124 13005KT P6SM SCT030
     FM011500 13010KT P6SM SCT030 SCT250=



000
FTUS42 KMFL 312333
TAFMIA
TAF
KMIA 312333Z 0100/0124 12008KT P6SM SCT060
     FM010400 00000KT P6SM SKC
     FM011600 13006KT P6SM VCSH SCT030 SCT250=



000
FTUS42 KMFL 312333
TAFAPF
TAF
KAPF 312333Z 0100/0124 14003KT P6SM SCT025 BKN050
     FM011600 21010KT P6SM VCSH SCT030 SCT250=



000
FTUS42 KMFL 312333
TAFFLL
TAF
KFLL 312333Z 0100/0124 13005KT P6SM SCT030
     FM011500 13010KT P6SM SCT030 SCT250=



000
FTUS42 KMFL 312333
TAFMIA
TAF
KMIA 312333Z 0100/0124 12008KT P6SM SCT060
     FM010400 00000KT P6SM SKC
     FM011600 13006KT P6SM VCSH SCT030 SCT250=



000
FTUS42 KMFL 312333
TAFPBI
TAF
KPBI 312333Z 0100/0124 14004KT P6SM SCT040 SCT150
     FM010600 00000KT P6SM SKC
     FM011600 13010KT P6SM VCSH SCT030=



000
FTUS42 KMFL 312333
TAFAPF
TAF
KAPF 312333Z 0100/0124 14003KT P6SM SCT025 BKN050
     FM011600 21010KT P6SM VCSH SCT030 SCT250=



000
FTUS42 KMFL 312207 AAB
TAFAPF
TAF AMD
KAPF 312207Z 3122/0118 15005KT P6SM VCSH SCT030 BKN050
      TEMPO 3122/3124 20007KT 2SM RA OVC025=



000
FTUS42 KMFL 312207 AAB
TAFAPF
TAF AMD
KAPF 312207Z 3122/0118 15005KT P6SM VCSH SCT030 BKN050
      TEMPO 3122/3124 20007KT 2SM RA OVC025=



000
FTUS42 KMFL 312042 AAA
TAFPBI
TAF AMD
KPBI 312042Z 3121/0118 15014KT P6SM VCTS SCT030CB SCT150
     FM312200 13006KT P6SM SCT025 SCT035
     FM010600 14003KT P6SM SKC
     FM011400 14010KT P6SM SCT030=



000
FTUS42 KMFL 312042 AAA
TAFFLL
TAF AMD
KFLL 312042Z 3121/0118 14015KT P6SM SCT060
     FM312200 11005KT P6SM SCT025 SCT035
     FM011500 14010KT P6SM SCT030 SCT250=



000
FTUS42 KMFL 312042 AAA
TAFFLL
TAF AMD
KFLL 312042Z 3121/0118 14015KT P6SM SCT060
     FM312200 11005KT P6SM SCT025 SCT035
     FM011500 14010KT P6SM SCT030 SCT250=



000
FTUS42 KMFL 312042 AAA
TAFAPF
TAF AMD
KAPF 312042Z 3121/0118 15005KT P6SM VCSH SCT030 BKN050=



000
FTUS42 KMFL 312042 AAA
TAFMIA
TAF AMD
KMIA 312042Z 3121/0118 14011KT P6SM VCSH SCT040 SCT250
     FM312300 12008KT P6SM SCT030
     FM010300 13003KT P6SM SKC=



000
FTUS42 KMFL 312042 AAA
TAFAPF
TAF AMD
KAPF 312042Z 3121/0118 15005KT P6SM VCSH SCT030 BKN050=



000
FTUS42 KMFL 312042 AAA
TAFMIA
TAF AMD
KMIA 312042Z 3121/0118 14011KT P6SM VCSH SCT040 SCT250
     FM312300 12008KT P6SM SCT030
     FM010300 13003KT P6SM SKC=



000
FTUS42 KMFL 311730
TAFPBI
TAF
KPBI 311730Z 3118/0118 16014KT P6SM VCTS SCT030CB
     FM312200 13006KT P6SM SCT025 SCT035
     FM010600 14003KT P6SM SKC
     FM011400 14010KT P6SM SCT030=



000
FTUS42 KMFL 311730
TAFMIA
TAF
KMIA 311730Z 3118/0118 14011KT P6SM VCTS SCT030CB SCT250
     FM312300 12008KT P6SM SCT030
     FM010300 13003KT P6SM SKC=



000
FTUS42 KMFL 311730
TAFFLL
TAF
KFLL 311730Z 3118/0118 14013KT P6SM VCSH SCT030
     FM312200 11005KT P6SM SCT025 SCT035
     FM011500 14010KT P6SM SCT030 SCT250=



000
FTUS42 KMFL 311730
TAFFLL
TAF
KFLL 311730Z 3118/0118 14013KT P6SM VCSH SCT030
     FM312200 11005KT P6SM SCT025 SCT035
     FM011500 14010KT P6SM SCT030 SCT250=



000
FTUS42 KMFL 311730
TAFMIA
TAF
KMIA 311730Z 3118/0118 14011KT P6SM VCTS SCT030CB SCT250
     FM312300 12008KT P6SM SCT030
     FM010300 13003KT P6SM SKC=



000
FTUS42 KMFL 311730
TAFAPF
TAF
KAPF 311730Z 3118/0118 17004KT P6SM VCTS SCT040CB BKN100
      TEMPO 3118/3119 VRB15G25KT 4SM TSRA SCT025CB BKN050
     FM010300 13005KT P6SM VCSH SCT030 BKN050=



000
FTUS42 KMFL 311730
TAFAPF
TAF
KAPF 311730Z 3118/0118 17004KT P6SM VCTS SCT040CB BKN100
      TEMPO 3118/3119 VRB15G25KT 4SM TSRA SCT025CB BKN050
     FM010300 13005KT P6SM VCSH SCT030 BKN050=



000
FTUS42 KMFL 311730
TAFMIA
TAF
KMIA 311730Z 3118/0118 14011KT P6SM VCTS SCT030CB SCT250
     FM312300 12008KT P6SM SCT030
     FM010300 13003KT P6SM SKC=



000
FTUS42 KMFL 311730
TAFFLL
TAF
KFLL 311730Z 3118/0118 14013KT P6SM VCSH SCT030
     FM312200 11005KT P6SM SCT025 SCT035
     FM011500 14010KT P6SM SCT030 SCT250=



000
FTUS42 KMFL 311730
TAFPBI
TAF
KPBI 311730Z 3118/0118 16014KT P6SM VCTS SCT030CB
     FM312200 13006KT P6SM SCT025 SCT035
     FM010600 14003KT P6SM SKC
     FM011400 14010KT P6SM SCT030=



000
FTUS42 KMFL 311730
TAFPBI
TAF
KPBI 311730Z 3118/0118 16014KT P6SM VCTS SCT030CB
     FM312200 13006KT P6SM SCT025 SCT035
     FM010600 14003KT P6SM SKC
     FM011400 14010KT P6SM SCT030=



000
FTUS42 KMFL 311730
TAFFLL
TAF
KFLL 311730Z 3118/0118 14013KT P6SM VCSH SCT030
     FM312200 11005KT P6SM SCT025 SCT035
     FM011500 14010KT P6SM SCT030 SCT250=



000
FTUS42 KMFL 311730
TAFMIA
TAF
KMIA 311730Z 3118/0118 14011KT P6SM VCTS SCT030CB SCT250
     FM312300 12008KT P6SM SCT030
     FM010300 13003KT P6SM SKC=



000
FTUS42 KMFL 311730
TAFPBI
TAF
KPBI 311730Z 3118/0118 16014KT P6SM VCTS SCT030CB
     FM312200 13006KT P6SM SCT025 SCT035
     FM010600 14003KT P6SM SKC
     FM011400 14010KT P6SM SCT030=



000
FTUS42 KMFL 311730
TAFAPF
TAF
KAPF 311730Z 3118/0118 17004KT P6SM VCTS SCT040CB BKN100
      TEMPO 3118/3119 VRB15G25KT 4SM TSRA SCT025CB BKN050
     FM010300 13005KT P6SM VCSH SCT030 BKN050=



000
FTUS42 KMFL 311730
TAFAPF
TAF
KAPF 311730Z 3118/0118 17004KT P6SM VCTS SCT040CB BKN100
      TEMPO 3118/3119 VRB15G25KT 4SM TSRA SCT025CB BKN050
     FM010300 13005KT P6SM VCSH SCT030 BKN050=



000
FTUS42 KMFL 311618 AAB
TAFFLL
TAF AMD
KFLL 311618Z 3116/0112 14012KT P6SM VCTS SCT030CB BKN050
      TEMPO 3116/3117 BKN025CB
     FM312300 11006KT P6SM SCT025 SCT035=



000
FTUS42 KMFL 311618 AAB
TAFFLL
TAF AMD
KFLL 311618Z 3116/0112 14012KT P6SM VCTS SCT030CB BKN050
      TEMPO 3116/3117 BKN025CB
     FM312300 11006KT P6SM SCT025 SCT035=



000
FTUS42 KMFL 311618 AAB
TAFFLL
TAF AMD
KFLL 311618Z 3116/0112 14012KT P6SM VCTS SCT030CB BKN050
      TEMPO 3116/3117 BKN025CB
     FM312300 11006KT P6SM SCT025 SCT035=



000
FTUS42 KMFL 311618 AAB
TAFFLL
TAF AMD
KFLL 311618Z 3116/0112 14012KT P6SM VCTS SCT030CB BKN050
      TEMPO 3116/3117 BKN025CB
     FM312300 11006KT P6SM SCT025 SCT035=



000
FTUS42 KMFL 311507 AAC
TAFAPF
TAF AMD
KAPF 311507Z 3115/0112 15009KT P6SM VCTS SCT025CB SCT030 BKN035
      TEMPO 3115/3116 VRB15G25KT 6SM TSRA BKN025CB OVC050
     FM311700 20012KT P6SM VCTS SCT030CB BKN050
     FM010100 VRB03KT P6SM SCT030 SCT040=



000
FTUS42 KMFL 311507 AAC
TAFAPF
TAF AMD
KAPF 311507Z 3115/0112 15009KT P6SM VCTS SCT025CB SCT030 BKN035
      TEMPO 3115/3116 VRB15G25KT 6SM TSRA BKN025CB OVC050
     FM311700 20012KT P6SM VCTS SCT030CB BKN050
     FM010100 VRB03KT P6SM SCT030 SCT040=



000
FTUS42 KMFL 311504 AAA
TAFFLL
TAF AMD
KFLL 311504Z 3115/0112 14015G21KT P6SM SCT025 BKN250
      TEMPO 3115/3116 BKN025
     FM311600 14012KT P6SM VCTS SCT030CB BKN050
     FM312300 11006KT P6SM SCT025 SCT035=



000
FTUS42 KMFL 311504 AAA
TAFPBI
TAF AMD
KPBI 311504Z 3115/0112 16012KT P6SM SCT025 SCT035 SCT250
     FM311600 16010KT P6SM VCTS SCT030CB OVC250
     FM312200 13006KT P6SM SCT025 SCT035=



000
FTUS42 KMFL 311504 AAA
TAFFLL
TAF AMD
KFLL 311504Z 3115/0112 14015G21KT P6SM SCT025 BKN250
      TEMPO 3115/3116 BKN025
     FM311600 14012KT P6SM VCTS SCT030CB BKN050
     FM312300 11006KT P6SM SCT025 SCT035=



000
FTUS42 KMFL 311504 AAB
TAFAPF
TAF AMD
KAPF 311504Z 3115/0112 15009KT P6SM VCTS SCT023CB SCT030 BKN035
     FM311700 20012KT P6SM VCTS SCT030CB BKN050
     FM010100 VRB03KT P6SM SCT030 SCT040=



000
FTUS42 KMFL 311504 AAA
TAFMIA
TAF AMD
KMIA 311504Z 3115/0112 14008G17KT P6SM SCT025 BKN250
      TEMPO 3115/3116 BKN025
     FM311600 14010KT P6SM VCTS SCT030CB BKN050
     FM312300 10004KT P6SM SCT025 SCT035=



000
FTUS42 KMFL 311504 AAA
TAFMIA
TAF AMD
KMIA 311504Z 3115/0112 14008G17KT P6SM SCT025 BKN250
      TEMPO 3115/3116 BKN025
     FM311600 14010KT P6SM VCTS SCT030CB BKN050
     FM312300 10004KT P6SM SCT025 SCT035=



000
FTUS42 KMFL 311504 AAB
TAFAPF
TAF AMD
KAPF 311504Z 3115/0112 15009KT P6SM VCTS SCT023CB SCT030 BKN035
     FM311700 20012KT P6SM VCTS SCT030CB BKN050
     FM010100 VRB03KT P6SM SCT030 SCT040=



000
FTUS42 KMFL 311504 AAB
TAFAPF
TAF AMD
KAPF 311504Z 3115/0112 15009KT P6SM VCTS SCT023CB SCT030 BKN035
     FM311700 20012KT P6SM VCTS SCT030CB BKN050
     FM010100 VRB03KT P6SM SCT030 SCT040=



000
FTUS42 KMFL 311504 AAA
TAFPBI
TAF AMD
KPBI 311504Z 3115/0112 16012KT P6SM SCT025 SCT035 SCT250
     FM311600 16010KT P6SM VCTS SCT030CB OVC250
     FM312200 13006KT P6SM SCT025 SCT035=



000
FTUS42 KMFL 311504 AAA
TAFMIA
TAF AMD
KMIA 311504Z 3115/0112 14008G17KT P6SM SCT025 BKN250
      TEMPO 3115/3116 BKN025
     FM311600 14010KT P6SM VCTS SCT030CB BKN050
     FM312300 10004KT P6SM SCT025 SCT035=



000
FTUS42 KMFL 311504 AAA
TAFPBI
TAF AMD
KPBI 311504Z 3115/0112 16012KT P6SM SCT025 SCT035 SCT250
     FM311600 16010KT P6SM VCTS SCT030CB OVC250
     FM312200 13006KT P6SM SCT025 SCT035=



000
FTUS42 KMFL 311504 AAB
TAFAPF
TAF AMD
KAPF 311504Z 3115/0112 15009KT P6SM VCTS SCT023CB SCT030 BKN035
     FM311700 20012KT P6SM VCTS SCT030CB BKN050
     FM010100 VRB03KT P6SM SCT030 SCT040=



000
FTUS42 KMFL 311504 AAA
TAFFLL
TAF AMD
KFLL 311504Z 3115/0112 14015G21KT P6SM SCT025 BKN250
      TEMPO 3115/3116 BKN025
     FM311600 14012KT P6SM VCTS SCT030CB BKN050
     FM312300 11006KT P6SM SCT025 SCT035=



000
FTUS42 KMFL 311430 AAA
TAFAPF
TAF AMD
KAPF 311430Z 3115/0112 13012KT P6SM VCTS SCT030CB
     FM311700 20012KT P6SM VCTS SCT030CB BKN050
     FM010100 VRB03KT P6SM SCT030 SCT040=



000
FTUS42 KMFL 311430 AAA
TAFAPF
TAF AMD
KAPF 311430Z 3115/0112 13012KT P6SM VCTS SCT030CB
     FM311700 20012KT P6SM VCTS SCT030CB BKN050
     FM010100 VRB03KT P6SM SCT030 SCT040=



000
FTUS42 KMFL 311430 AAA
TAFAPF
TAF AMD
KAPF 311430Z 3115/0112 13012KT P6SM VCTS SCT030CB
     FM311700 20012KT P6SM VCTS SCT030CB BKN050
     FM010100 VRB03KT P6SM SCT030 SCT040=



000
FTUS42 KMFL 311430 AAA
TAFAPF
TAF AMD
KAPF 311430Z 3115/0112 13012KT P6SM VCTS SCT030CB
     FM311700 20012KT P6SM VCTS SCT030CB BKN050
     FM010100 VRB03KT P6SM SCT030 SCT040=



000
FTUS42 KMFL 311135
TAFPBI
TAF
KPBI 311135Z 3112/0112 13005KT P6SM SCT250
     FM311600 16010KT P6SM VCTS SCT030CB OVC250
     FM312200 13006KT P6SM SCT025 SCT035=



000
FTUS42 KMFL 311135
TAFFLL
TAF
KFLL 311135Z 3112/0112 13010KT P6SM SCT023 SCT035 SCT250
     FM311600 14012KT P6SM VCTS SCT030CB BKN050
     FM312300 11006KT P6SM SCT025 SCT035=



000
FTUS42 KMFL 311135
TAFPBI
TAF
KPBI 311135Z 3112/0112 13005KT P6SM SCT250
     FM311600 16010KT P6SM VCTS SCT030CB OVC250
     FM312200 13006KT P6SM SCT025 SCT035=



000
FTUS42 KMFL 311135
TAFMIA
TAF
KMIA 311135Z 3112/0112 13004KT P6SM SCT300
     FM311600 14010KT P6SM VCTS SCT030CB BKN050
     FM312300 10004KT P6SM SCT025 SCT035=



000
FTUS42 KMFL 311135
TAFAPF
TAF
KAPF 311135Z 3112/0112 11005KT P6SM BKN070 BKN080
     FM311400 17010KT P6SM SCT035
     FM311700 20012KT P6SM VCTS SCT030CB BKN050
     FM010100 VRB03KT P6SM SCT030 SCT040=



000
FTUS42 KMFL 311135
TAFMIA
TAF
KMIA 311135Z 3112/0112 13004KT P6SM SCT300
     FM311600 14010KT P6SM VCTS SCT030CB BKN050
     FM312300 10004KT P6SM SCT025 SCT035=



000
FTUS42 KMFL 311135
TAFFLL
TAF
KFLL 311135Z 3112/0112 13010KT P6SM SCT023 SCT035 SCT250
     FM311600 14012KT P6SM VCTS SCT030CB BKN050
     FM312300 11006KT P6SM SCT025 SCT035=



000
FTUS42 KMFL 311135
TAFPBI
TAF
KPBI 311135Z 3112/0112 13005KT P6SM SCT250
     FM311600 16010KT P6SM VCTS SCT030CB OVC250
     FM312200 13006KT P6SM SCT025 SCT035=



000
FTUS42 KMFL 311135
TAFAPF
TAF
KAPF 311135Z 3112/0112 11005KT P6SM BKN070 BKN080
     FM311400 17010KT P6SM SCT035
     FM311700 20012KT P6SM VCTS SCT030CB BKN050
     FM010100 VRB03KT P6SM SCT030 SCT040=



000
FTUS42 KMFL 311135
TAFAPF
TAF
KAPF 311135Z 3112/0112 11005KT P6SM BKN070 BKN080
     FM311400 17010KT P6SM SCT035
     FM311700 20012KT P6SM VCTS SCT030CB BKN050
     FM010100 VRB03KT P6SM SCT030 SCT040=



000
FTUS42 KMFL 311135
TAFMIA
TAF
KMIA 311135Z 3112/0112 13004KT P6SM SCT300
     FM311600 14010KT P6SM VCTS SCT030CB BKN050
     FM312300 10004KT P6SM SCT025 SCT035=



000
FTUS42 KMFL 311135
TAFFLL
TAF
KFLL 311135Z 3112/0112 13010KT P6SM SCT023 SCT035 SCT250
     FM311600 14012KT P6SM VCTS SCT030CB BKN050
     FM312300 11006KT P6SM SCT025 SCT035=



000
FTUS42 KMFL 311135
TAFAPF
TAF
KAPF 311135Z 3112/0112 11005KT P6SM BKN070 BKN080
     FM311400 17010KT P6SM SCT035
     FM311700 20012KT P6SM VCTS SCT030CB BKN050
     FM010100 VRB03KT P6SM SCT030 SCT040=



000
FTUS42 KMFL 311135
TAFFLL
TAF
KFLL 311135Z 3112/0112 13010KT P6SM SCT023 SCT035 SCT250
     FM311600 14012KT P6SM VCTS SCT030CB BKN050
     FM312300 11006KT P6SM SCT025 SCT035=



000
FTUS42 KMFL 311135
TAFMIA
TAF
KMIA 311135Z 3112/0112 13004KT P6SM SCT300
     FM311600 14010KT P6SM VCTS SCT030CB BKN050
     FM312300 10004KT P6SM SCT025 SCT035=



000
FTUS42 KMFL 311135
TAFPBI
TAF
KPBI 311135Z 3112/0112 13005KT P6SM SCT250
     FM311600 16010KT P6SM VCTS SCT030CB OVC250
     FM312200 13006KT P6SM SCT025 SCT035=



000
FTUS42 KMFL 310852 AAA
TAFAPF
TAF AMD
KAPF 310852Z 3109/0106 10006KT P6SM SCT100
     FM311400 17010KT P6SM SCT035
     FM311700 20012KT P6SM VCTS SCT030CB BKN050
     FM010100 VRB03KT P6SM VCSH SCT030 SCT040=



000
FTUS42 KMFL 310852 AAA
TAFMIA
TAF AMD
KMIA 310852Z 3109/0106 VRB03KT P6SM SCT025 SCT150
     FM311400 14010KT P6SM VCTS SCT030CB BKN050
     FM010100 10006KT P6SM VCSH SCT025 SCT035=



000
FTUS42 KMFL 310852 AAA
TAFPBI
TAF AMD
KPBI 310852Z 3109/0106 14005KT P6SM SCT025 SCT200
     FM311400 16010KT P6SM VCTS SCT030CB OVC250
     FM010000 13006KT P6SM VCSH SCT025 SCT035=



000
FTUS42 KMFL 310852 AAA
TAFFLL
TAF AMD
KFLL 310852Z 3109/0106 14006KT P6SM SCT150
     FM311400 14012KT P6SM VCTS SCT030CB BKN050
     FM010100 11006KT P6SM VCSH SCT025 SCT035=



000
FTUS42 KMFL 310852 AAA
TAFMIA
TAF AMD
KMIA 310852Z 3109/0106 VRB03KT P6SM SCT025 SCT150
     FM311400 14010KT P6SM VCTS SCT030CB BKN050
     FM010100 10006KT P6SM VCSH SCT025 SCT035=



000
FTUS42 KMFL 310852 AAA
TAFAPF
TAF AMD
KAPF 310852Z 3109/0106 10006KT P6SM SCT100
     FM311400 17010KT P6SM SCT035
     FM311700 20012KT P6SM VCTS SCT030CB BKN050
     FM010100 VRB03KT P6SM VCSH SCT030 SCT040=



000
FTUS42 KMFL 310852 AAA
TAFFLL
TAF AMD
KFLL 310852Z 3109/0106 14006KT P6SM SCT150
     FM311400 14012KT P6SM VCTS SCT030CB BKN050
     FM010100 11006KT P6SM VCSH SCT025 SCT035=



000
FTUS42 KMFL 310852 AAA
TAFPBI
TAF AMD
KPBI 310852Z 3109/0106 14005KT P6SM SCT025 SCT200
     FM311400 16010KT P6SM VCTS SCT030CB OVC250
     FM010000 13006KT P6SM VCSH SCT025 SCT035=



000
FTUS42 KMFL 310536
TAFPBI
TAF
KPBI 310536Z 3106/0106 16005KT P6SM SCT030 SCT150
     FM311400 16010KT P6SM VCTS SCT030CB OVC250
     FM010000 13006KT P6SM VCSH SCT025 SCT035=



000
FTUS42 KMFL 310536
TAFFLL
TAF
KFLL 310536Z 3106/0106 VRB03KT P6SM SCT030 SCT150
     FM311400 14012KT P6SM VCTS SCT030CB BKN050
     FM010100 11006KT P6SM VCSH SCT025 SCT035=



000
FTUS42 KMFL 310536
TAFMIA
TAF
KMIA 310536Z 3106/0106 VRB03KT P6SM SCT030 SCT150
     FM311400 14010KT P6SM VCTS SCT030CB BKN050
     FM010100 10006KT P6SM VCSH SCT025 SCT035=



000
FTUS42 KMFL 310536
TAFAPF
TAF
KAPF 310536Z 3106/0106 07005KT P6SM SCT150
     FM311400 17010KT P6SM SCT035
     FM311700 20012KT P6SM VCTS SCT030CB BKN050
     FM010100 VRB03KT P6SM VCSH SCT030 SCT040=



000
FTUS42 KMFL 310536
TAFFLL
TAF
KFLL 310536Z 3106/0106 VRB03KT P6SM SCT030 SCT150
     FM311400 14012KT P6SM VCTS SCT030CB BKN050
     FM010100 11006KT P6SM VCSH SCT025 SCT035=



000
FTUS42 KMFL 310536
TAFMIA
TAF
KMIA 310536Z 3106/0106 VRB03KT P6SM SCT030 SCT150
     FM311400 14010KT P6SM VCTS SCT030CB BKN050
     FM010100 10006KT P6SM VCSH SCT025 SCT035=



000
FTUS42 KMFL 310536
TAFAPF
TAF
KAPF 310536Z 3106/0106 07005KT P6SM SCT150
     FM311400 17010KT P6SM SCT035
     FM311700 20012KT P6SM VCTS SCT030CB BKN050
     FM010100 VRB03KT P6SM VCSH SCT030 SCT040=



000
FTUS42 KMFL 310536
TAFPBI
TAF
KPBI 310536Z 3106/0106 16005KT P6SM SCT030 SCT150
     FM311400 16010KT P6SM VCTS SCT030CB OVC250
     FM010000 13006KT P6SM VCSH SCT025 SCT035=



000
FTUS42 KMFL 310536
TAFMIA
TAF
KMIA 310536Z 3106/0106 VRB03KT P6SM SCT030 SCT150
     FM311400 14010KT P6SM VCTS SCT030CB BKN050
     FM010100 10006KT P6SM VCSH SCT025 SCT035=



000
FTUS42 KMFL 310536
TAFAPF
TAF
KAPF 310536Z 3106/0106 07005KT P6SM SCT150
     FM311400 17010KT P6SM SCT035
     FM311700 20012KT P6SM VCTS SCT030CB BKN050
     FM010100 VRB03KT P6SM VCSH SCT030 SCT040=



000
FTUS42 KMFL 310536
TAFMIA
TAF
KMIA 310536Z 3106/0106 VRB03KT P6SM SCT030 SCT150
     FM311400 14010KT P6SM VCTS SCT030CB BKN050
     FM010100 10006KT P6SM VCSH SCT025 SCT035=



000
FTUS42 KMFL 310536
TAFFLL
TAF
KFLL 310536Z 3106/0106 VRB03KT P6SM SCT030 SCT150
     FM311400 14012KT P6SM VCTS SCT030CB BKN050
     FM010100 11006KT P6SM VCSH SCT025 SCT035=



000
FTUS42 KMFL 310536
TAFFLL
TAF
KFLL 310536Z 3106/0106 VRB03KT P6SM SCT030 SCT150
     FM311400 14012KT P6SM VCTS SCT030CB BKN050
     FM010100 11006KT P6SM VCSH SCT025 SCT035=



000
FTUS42 KMFL 310536
TAFAPF
TAF
KAPF 310536Z 3106/0106 07005KT P6SM SCT150
     FM311400 17010KT P6SM SCT035
     FM311700 20012KT P6SM VCTS SCT030CB BKN050
     FM010100 VRB03KT P6SM VCSH SCT030 SCT040=



000
FTUS42 KMFL 310536
TAFPBI
TAF
KPBI 310536Z 3106/0106 16005KT P6SM SCT030 SCT150
     FM311400 16010KT P6SM VCTS SCT030CB OVC250
     FM010000 13006KT P6SM VCSH SCT025 SCT035=



000
FTUS42 KMFL 310536
TAFPBI
TAF
KPBI 310536Z 3106/0106 16005KT P6SM SCT030 SCT150
     FM311400 16010KT P6SM VCTS SCT030CB OVC250
     FM010000 13006KT P6SM VCSH SCT025 SCT035=



000
FTUS42 KMFL 310335 AAA
TAFMIA
TAF AMD
KMIA 310335Z 3104/3124 14005KT P6SM FEW050 BKN150
     FM310500 VRB03KT P6SM VCSH SCT030 BKN050
     FM311500 16010KT P6SM VCTS SCT030CB BKN050=



000
FTUS42 KMFL 310335 AAA
TAFPBI
TAF AMD
KPBI 310335Z 3104/3124 VRB04KT P6SM FEW025 BKN150
     FM310600 VRB04KT P6SM VCSH SCT030 BKN150
     FM311500 16010KT P6SM VCTS SCT030CB OVC250=



000
FTUS42 KMFL 310335 AAA
TAFFLL
TAF AMD
KFLL 310335Z 3104/3124 15005KT P6SM FEW025 OVC150
     FM310600 15005KT P6SM VCSH SCT030 BKN150
     FM311500 16012KT P6SM VCTS SCT030CB BKN050=



000
FTUS42 KMFL 310335 AAB
TAFAPF
TAF AMD
KAPF 310335Z 3104/3124 VRB03KT P6SM -SHRA SCT120
     FM310600 VRB03KT P6SM SCT045 BKN150
     FM311300 16008KT P6SM SCT035
     FM311700 19012KT P6SM VCTS SCT030CB BKN050=



000
FTUS42 KMFL 310335 AAA
TAFFLL
TAF AMD
KFLL 310335Z 3104/3124 15005KT P6SM FEW025 OVC150
     FM310600 15005KT P6SM VCSH SCT030 BKN150
     FM311500 16012KT P6SM VCTS SCT030CB BKN050=



000
FTUS42 KMFL 310335 AAB
TAFAPF
TAF AMD
KAPF 310335Z 3104/3124 VRB03KT P6SM -SHRA SCT120
     FM310600 VRB03KT P6SM SCT045 BKN150
     FM311300 16008KT P6SM SCT035
     FM311700 19012KT P6SM VCTS SCT030CB BKN050=



000
FTUS42 KMFL 310335 AAA
TAFPBI
TAF AMD
KPBI 310335Z 3104/3124 VRB04KT P6SM FEW025 BKN150
     FM310600 VRB04KT P6SM VCSH SCT030 BKN150
     FM311500 16010KT P6SM VCTS SCT030CB OVC250=



000
FTUS42 KMFL 310335 AAA
TAFMIA
TAF AMD
KMIA 310335Z 3104/3124 14005KT P6SM FEW050 BKN150
     FM310500 VRB03KT P6SM VCSH SCT030 BKN050
     FM311500 16010KT P6SM VCTS SCT030CB BKN050=



000
FTUS42 KMFL 310335 AAB
TAFAPF
TAF AMD
KAPF 310335Z 3104/3124 VRB03KT P6SM -SHRA SCT120
     FM310600 VRB03KT P6SM SCT045 BKN150
     FM311300 16008KT P6SM SCT035
     FM311700 19012KT P6SM VCTS SCT030CB BKN050=



000
FTUS42 KMFL 310335 AAA
TAFMIA
TAF AMD
KMIA 310335Z 3104/3124 14005KT P6SM FEW050 BKN150
     FM310500 VRB03KT P6SM VCSH SCT030 BKN050
     FM311500 16010KT P6SM VCTS SCT030CB BKN050=



000
FTUS42 KMFL 310335 AAA
TAFFLL
TAF AMD
KFLL 310335Z 3104/3124 15005KT P6SM FEW025 OVC150
     FM310600 15005KT P6SM VCSH SCT030 BKN150
     FM311500 16012KT P6SM VCTS SCT030CB BKN050=



000
FTUS42 KMFL 310335 AAA
TAFPBI
TAF AMD
KPBI 310335Z 3104/3124 VRB04KT P6SM FEW025 BKN150
     FM310600 VRB04KT P6SM VCSH SCT030 BKN150
     FM311500 16010KT P6SM VCTS SCT030CB OVC250=



000
FTUS42 KMFL 310335 AAB
TAFAPF
TAF AMD
KAPF 310335Z 3104/3124 VRB03KT P6SM -SHRA SCT120
     FM310600 VRB03KT P6SM SCT045 BKN150
     FM311300 16008KT P6SM SCT035
     FM311700 19012KT P6SM VCTS SCT030CB BKN050=



000
FTUS42 KMFL 310335 AAA
TAFMIA
TAF AMD
KMIA 310335Z 3104/3124 14005KT P6SM FEW050 BKN150
     FM310500 VRB03KT P6SM VCSH SCT030 BKN050
     FM311500 16010KT P6SM VCTS SCT030CB BKN050=



000
FTUS42 KMFL 310335 AAA
TAFFLL
TAF AMD
KFLL 310335Z 3104/3124 15005KT P6SM FEW025 OVC150
     FM310600 15005KT P6SM VCSH SCT030 BKN150
     FM311500 16012KT P6SM VCTS SCT030CB BKN050=



000
FTUS42 KMFL 310128 AAA
TAFAPF
TAF AMD
KAPF 310128Z 3101/3124 14006KT P6SM VCTS BKN050CB
      TEMPO 3102/3106 5SM SHRA OVC035
     FM311700 19013KT P6SM VCTS SCT030CB BKN050=



000
FTUS42 KMFL 310128 AAA
TAFAPF
TAF AMD
KAPF 310128Z 3101/3124 14006KT P6SM VCTS BKN050CB
      TEMPO 3102/3106 5SM SHRA OVC035
     FM311700 19013KT P6SM VCTS SCT030CB BKN050=



000
FTUS42 KMFL 302334
TAFAPF
TAF
KAPF 302334Z 3100/3124 23006KT 5SM TSRA BKN035CB OVC060
     FM310200 14006KT P6SM VCTS SCT030CB BKN050
      TEMPO 3102/3106 5SM TSRA OVC035CB
     FM311700 19013KT P6SM VCTS SCT030CB BKN050=



000
FTUS42 KMFL 302334
TAFPBI
TAF
KPBI 302334Z 3100/3124 17008KT P6SM VCSH SCT050 OVC120
     FM310600 16004KT P6SM VCSH SCT030 OVC250
     FM311500 16010KT P6SM VCTS SCT030CB OVC250=



000
FTUS42 KMFL 302334
TAFAPF
TAF
KAPF 302334Z 3100/3124 23006KT 5SM TSRA BKN035CB OVC060
     FM310200 14006KT P6SM VCTS SCT030CB BKN050
      TEMPO 3102/3106 5SM TSRA OVC035CB
     FM311700 19013KT P6SM VCTS SCT030CB BKN050=



000
FTUS42 KMFL 302334
TAFPBI
TAF
KPBI 302334Z 3100/3124 17008KT P6SM VCSH SCT050 OVC120
     FM310600 16004KT P6SM VCSH SCT030 OVC250
     FM311500 16010KT P6SM VCTS SCT030CB OVC250=



000
FTUS42 KMFL 302334
TAFMIA
TAF
KMIA 302334Z 3100/3124 16007KT P6SM VCSH BKN050 OVC150
     FM310500 16003KT P6SM VCSH SCT030 BKN050
     FM311500 16009KT P6SM VCTS SCT030CB BKN050=



000
FTUS42 KMFL 302334
TAFAPF
TAF
KAPF 302334Z 3100/3124 23006KT 5SM TSRA BKN035CB OVC060
     FM310200 14006KT P6SM VCTS SCT030CB BKN050
      TEMPO 3102/3106 5SM TSRA OVC035CB
     FM311700 19013KT P6SM VCTS SCT030CB BKN050=



000
FTUS42 KMFL 302334
TAFFLL
TAF
KFLL 302334Z 3100/3124 16006KT P6SM VCSH BKN050 OVC150
     FM311500 16012KT P6SM VCTS SCT030CB BKN050=



000
FTUS42 KMFL 302334
TAFPBI
TAF
KPBI 302334Z 3100/3124 17008KT P6SM VCSH SCT050 OVC120
     FM310600 16004KT P6SM VCSH SCT030 OVC250
     FM311500 16010KT P6SM VCTS SCT030CB OVC250=



000
FTUS42 KMFL 302219 AAD
TAFAPF
TAF AMD
KAPF 302219Z 3022/3118 23005KT P6SM VCTS BKN040CB OVC060
      TEMPO 3022/3102 2SM TSRA OVC035CB
     FM310200 12011KT P6SM VCTS SCT030CB BKN050
     FM311000 15006KT P6SM VCTS SCT030CB BKN050=



000
FTUS42 KMFL 302219 AAD
TAFAPF
TAF AMD
KAPF 302219Z 3022/3118 23005KT P6SM VCTS BKN040CB OVC060
      TEMPO 3022/3102 2SM TSRA OVC035CB
     FM310200 12011KT P6SM VCTS SCT030CB BKN050
     FM311000 15006KT P6SM VCTS SCT030CB BKN050=



000
FTUS42 KMFL 302219 AAD
TAFAPF
TAF AMD
KAPF 302219Z 3022/3118 23005KT P6SM VCTS BKN040CB OVC060
      TEMPO 3022/3102 2SM TSRA OVC035CB
     FM310200 12011KT P6SM VCTS SCT030CB BKN050
     FM311000 15006KT P6SM VCTS SCT030CB BKN050=



000
FTUS42 KMFL 302219 AAD
TAFAPF
TAF AMD
KAPF 302219Z 3022/3118 23005KT P6SM VCTS BKN040CB OVC060
      TEMPO 3022/3102 2SM TSRA OVC035CB
     FM310200 12011KT P6SM VCTS SCT030CB BKN050
     FM311000 15006KT P6SM VCTS SCT030CB BKN050=



000
FTUS42 KMFL 302109 AAD
TAFPBI
TAF AMD
KPBI 302109Z 3021/3118 21010KT P6SM VCSH BKN050 OVC090
     FM310000 16012KT P6SM VCSH BKN035 OVC200
      TEMPO 3100/3104 SHRA
     FM311100 17006KT P6SM VCSH SCT030 OVC250=



000
FTUS42 KMFL 302109 AAB
TAFMIA
TAF AMD
KMIA 302109Z 3021/3118 17010G20KT P6SM VCSH SCT060 OVC150
     FM310000 15010KT P6SM VCSH SCT030 BKN050
      TEMPO 3100/3104 SHRA
     FM310600 17006KT P6SM VCSH SCT030 BKN050=



000
FTUS42 KMFL 302109 AAC
TAFFLL
TAF AMD
KFLL 302109Z 3021/3118 19014KT P6SM VCSH FEW025 BKN050 OVC120
     FM310000 16008KT P6SM VCSH SCT030 OVC050
      TEMPO 3100/3104 SHRA
     FM311400 17011KT P6SM VCSH SCT030 BKN050=



000
FTUS42 KMFL 302109 AAC
TAFAPF
TAF AMD
KAPF 302109Z 3021/3118 17005KT P6SM VCTS BKN060CB
      TEMPO 3021/3101 5SM TSRA OVC035CB
     FM310100 12011KT P6SM VCTS SCT030CB BKN050
     FM311000 15006KT P6SM VCTS SCT030CB BKN050=



000
FTUS42 KMFL 302109 AAC
TAFAPF
TAF AMD
KAPF 302109Z 3021/3118 17005KT P6SM VCTS BKN060CB
      TEMPO 3021/3101 5SM TSRA OVC035CB
     FM310100 12011KT P6SM VCTS SCT030CB BKN050
     FM311000 15006KT P6SM VCTS SCT030CB BKN050=



000
FTUS42 KMFL 302109 AAC
TAFFLL
TAF AMD
KFLL 302109Z 3021/3118 19014KT P6SM VCSH FEW025 BKN050 OVC120
     FM310000 16008KT P6SM VCSH SCT030 OVC050
      TEMPO 3100/3104 SHRA
     FM311400 17011KT P6SM VCSH SCT030 BKN050=



000
FTUS42 KMFL 302042 AAC
TAFPBI
TAF AMD
KPBI 302042Z 3021/3118 21016KT P6SM VCSH BKN030 OVC090
      TEMPO 3021/3023 SHRA OVC020
     FM310000 16012KT P6SM VCSH BKN035 OVC200
     FM311100 17006KT P6SM VCSH SCT030 OVC250=



000
FTUS42 KMFL 302042 AAC
TAFPBI
TAF AMD
KPBI 302042Z 3021/3118 21016KT P6SM VCSH BKN030 OVC090
      TEMPO 3021/3023 SHRA OVC020
     FM310000 16012KT P6SM VCSH BKN035 OVC200
     FM311100 17006KT P6SM VCSH SCT030 OVC250=



000
FTUS42 KMFL 301920 AAB
TAFPBI
TAF AMD
KPBI 301920Z 3019/3118 15017KT P6SM VCSH BKN040 OVC150
      TEMPO 3019/3023 SHRA OVC020
     FM310000 16012KT P6SM VCSH BKN035 OVC200
     FM311100 17006KT P6SM VCSH SCT030 OVC250=



000
FTUS42 KMFL 301920 AAB
TAFPBI
TAF AMD
KPBI 301920Z 3019/3118 15017KT P6SM VCSH BKN040 OVC150
      TEMPO 3019/3023 SHRA OVC020
     FM310000 16012KT P6SM VCSH BKN035 OVC200
     FM311100 17006KT P6SM VCSH SCT030 OVC250=



000
FTUS42 KMFL 301912 AAB
TAFFLL
TAF AMD
KFLL 301912Z 3019/3118 17014G23KT P6SM VCSH BKN035 OVC060
      TEMPO 3019/3023 SHRA BKN025
     FM310000 16008KT P6SM VCSH SCT030 OVC050
     FM311400 17011KT P6SM VCSH SCT030 BKN050=



000
FTUS42 KMFL 301912 AAB
TAFFLL
TAF AMD
KFLL 301912Z 3019/3118 17014G23KT P6SM VCSH BKN035 OVC060
      TEMPO 3019/3023 SHRA BKN025
     FM310000 16008KT P6SM VCSH SCT030 OVC050
     FM311400 17011KT P6SM VCSH SCT030 BKN050=



000
FTUS42 KMFL 301811 AAB
TAFAPF
TAF AMD
KAPF 301811Z 3018/3118 13010KT P6SM VCTS SCT030CB
      TEMPO 3018/3021 VRB10G25KT 5SM TSRA SCT025CB BKN050
     FM310100 12011KT P6SM VCTS SCT030CB BKN050
     FM311000 15006KT P6SM VCTS SCT030CB BKN050=



000
FTUS42 KMFL 301811 AAB
TAFAPF
TAF AMD
KAPF 301811Z 3018/3118 13010KT P6SM VCTS SCT030CB
      TEMPO 3018/3021 VRB10G25KT 5SM TSRA SCT025CB BKN050
     FM310100 12011KT P6SM VCTS SCT030CB BKN050
     FM311000 15006KT P6SM VCTS SCT030CB BKN050=



000
FTUS42 KMFL 301806 AAA
TAFPBI
TAF AMD
KPBI 301806Z 3018/3118 15017G24KT P6SM VCSH BKN040 OVC250
     FM310000 16012KT P6SM VCSH BKN035 OVC200
     FM311100 17006KT P6SM VCSH SCT030 OVC250=



000
FTUS42 KMFL 301806 AAA
TAFMIA
TAF AMD
KMIA 301806Z 3018/3118 16013G23KT P6SM VCSH BKN050 OVC250
     FM310100 15010KT P6SM VCSH SCT030 BKN050
     FM310600 17006KT P6SM VCSH SCT030 BKN050=



000
FTUS42 KMFL 301806 AAA
TAFPBI
TAF AMD
KPBI 301806Z 3018/3118 15017G24KT P6SM VCSH BKN040 OVC250
     FM310000 16012KT P6SM VCSH BKN035 OVC200
     FM311100 17006KT P6SM VCSH SCT030 OVC250=



000
FTUS42 KMFL 301806 AAA
TAFFLL
TAF AMD
KFLL 301806Z 3018/3118 17012G19KT P6SM VCSH BKN030 BKN045
     FM310000 16008KT P6SM VCSH SCT030 OVC050
     FM311400 17011KT P6SM VCSH SCT030 BKN050=



000
FTUS42 KMFL 301806 AAA
TAFAPF
TAF AMD
KAPF 301806Z 3018/3118 13010KT P6SM VCSH SCT030
      TEMPO 3018/3021 VRB10G25KT 5SM TSRA SCT025CB BKN050
     FM310100 12009KT P6SM VCSH SCT030 BKN050
     FM311000 15006KT P6SM VCSH SCT030 BKN050=



000
FTUS42 KMFL 301806 AAA
TAFPBI
TAF AMD
KPBI 301806Z 3018/3118 15017G24KT P6SM VCSH BKN040 OVC250
     FM310000 16012KT P6SM VCSH BKN035 OVC200
     FM311100 17006KT P6SM VCSH SCT030 OVC250=



000
FTUS42 KMFL 301806 AAA
TAFAPF
TAF AMD
KAPF 301806Z 3018/3118 13010KT P6SM VCSH SCT030
      TEMPO 3018/3021 VRB10G25KT 5SM TSRA SCT025CB BKN050
     FM310100 12009KT P6SM VCSH SCT030 BKN050
     FM311000 15006KT P6SM VCSH SCT030 BKN050=



000
FTUS42 KMFL 301806 AAA
TAFFLL
TAF AMD
KFLL 301806Z 3018/3118 17012G19KT P6SM VCSH BKN030 BKN045
     FM310000 16008KT P6SM VCSH SCT030 OVC050
     FM311400 17011KT P6SM VCSH SCT030 BKN050=



000
FTUS42 KMFL 301806 AAA
TAFMIA
TAF AMD
KMIA 301806Z 3018/3118 16013G23KT P6SM VCSH BKN050 OVC250
     FM310100 15010KT P6SM VCSH SCT030 BKN050
     FM310600 17006KT P6SM VCSH SCT030 BKN050=



000
FTUS42 KMFL 301806 AAA
TAFAPF
TAF AMD
KAPF 301806Z 3018/3118 13010KT P6SM VCSH SCT030
      TEMPO 3018/3021 VRB10G25KT 5SM TSRA SCT025CB BKN050
     FM310100 12009KT P6SM VCSH SCT030 BKN050
     FM311000 15006KT P6SM VCSH SCT030 BKN050=



000
FTUS42 KMFL 301806 AAA
TAFMIA
TAF AMD
KMIA 301806Z 3018/3118 16013G23KT P6SM VCSH BKN050 OVC250
     FM310100 15010KT P6SM VCSH SCT030 BKN050
     FM310600 17006KT P6SM VCSH SCT030 BKN050=



000
FTUS42 KMFL 301806 AAA
TAFFLL
TAF AMD
KFLL 301806Z 3018/3118 17012G19KT P6SM VCSH BKN030 BKN045
     FM310000 16008KT P6SM VCSH SCT030 OVC050
     FM311400 17011KT P6SM VCSH SCT030 BKN050=



000
FTUS42 KMFL 301806 AAA
TAFPBI
TAF AMD
KPBI 301806Z 3018/3118 15017G24KT P6SM VCSH BKN040 OVC250
     FM310000 16012KT P6SM VCSH BKN035 OVC200
     FM311100 17006KT P6SM VCSH SCT030 OVC250=



000
FTUS42 KMFL 301806 AAA
TAFFLL
TAF AMD
KFLL 301806Z 3018/3118 17012G19KT P6SM VCSH BKN030 BKN045
     FM310000 16008KT P6SM VCSH SCT030 OVC050
     FM311400 17011KT P6SM VCSH SCT030 BKN050=



000
FTUS42 KMFL 301806 AAA
TAFAPF
TAF AMD
KAPF 301806Z 3018/3118 13010KT P6SM VCSH SCT030
      TEMPO 3018/3021 VRB10G25KT 5SM TSRA SCT025CB BKN050
     FM310100 12009KT P6SM VCSH SCT030 BKN050
     FM311000 15006KT P6SM VCSH SCT030 BKN050=



000
FTUS42 KMFL 301806 AAA
TAFMIA
TAF AMD
KMIA 301806Z 3018/3118 16013G23KT P6SM VCSH BKN050 OVC250
     FM310100 15010KT P6SM VCSH SCT030 BKN050
     FM310600 17006KT P6SM VCSH SCT030 BKN050=



000
FTUS42 KMFL 301745
TAFPBI
TAF
KPBI 301745Z 3018/3118 15017G24KT P6SM VCSH BKN040 OVC250
     FM310100 16012KT P6SM VCSH BKN035 OVC200=



000
FTUS42 KMFL 301745
TAFFLL
TAF
KFLL 301745Z 3018/3118 17012G19KT P6SM VCSH BKN030 BKN045
     FM310000 15010KT P6SM SHRA SCT030 BKN050=



000
FTUS42 KMFL 301745
TAFAPF
TAF
KAPF 301745Z 3018/3118 13010KT P6SM VCSH SCT030
      TEMPO 3018/3021 VRB10G25KT 5SM TSRA SCT025CB BKN050
     FM310100 12007KT P6SM VCSH BKN040=



000
FTUS42 KMFL 301745
TAFMIA
TAF
KMIA 301745Z 3018/3118 16013KT P6SM SHRA BKN060 OVC220
     FM310100 13009KT P6SM SHRA SCT030 BKN050=



000
FTUS42 KMFL 301745
TAFMIA
TAF
KMIA 301745Z 3018/3118 16013KT P6SM SHRA BKN060 OVC220
     FM310100 13009KT P6SM SHRA SCT030 BKN050=



000
FTUS42 KMFL 301745
TAFAPF
TAF
KAPF 301745Z 3018/3118 13010KT P6SM VCSH SCT030
      TEMPO 3018/3021 VRB10G25KT 5SM TSRA SCT025CB BKN050
     FM310100 12007KT P6SM VCSH BKN040=



000
FTUS42 KMFL 301745
TAFPBI
TAF
KPBI 301745Z 3018/3118 15017G24KT P6SM VCSH BKN040 OVC250
     FM310100 16012KT P6SM VCSH BKN035 OVC200=



000
FTUS42 KMFL 301745
TAFFLL
TAF
KFLL 301745Z 3018/3118 17012G19KT P6SM VCSH BKN030 BKN045
     FM310000 15010KT P6SM SHRA SCT030 BKN050=



000
FTUS42 KMFL 301745
TAFMIA
TAF
KMIA 301745Z 3018/3118 16013KT P6SM SHRA BKN060 OVC220
     FM310100 13009KT P6SM SHRA SCT030 BKN050=



000
FTUS42 KMFL 301745
TAFAPF
TAF
KAPF 301745Z 3018/3118 13010KT P6SM VCSH SCT030
      TEMPO 3018/3021 VRB10G25KT 5SM TSRA SCT025CB BKN050
     FM310100 12007KT P6SM VCSH BKN040=



000
FTUS42 KMFL 301745
TAFPBI
TAF
KPBI 301745Z 3018/3118 15017G24KT P6SM VCSH BKN040 OVC250
     FM310100 16012KT P6SM VCSH BKN035 OVC200=



000
FTUS42 KMFL 301745
TAFFLL
TAF
KFLL 301745Z 3018/3118 17012G19KT P6SM VCSH BKN030 BKN045
     FM310000 15010KT P6SM SHRA SCT030 BKN050=



000
FTUS42 KMFL 301745
TAFAPF
TAF
KAPF 301745Z 3018/3118 13010KT P6SM VCSH SCT030
      TEMPO 3018/3021 VRB10G25KT 5SM TSRA SCT025CB BKN050
     FM310100 12007KT P6SM VCSH BKN040=



000
FTUS42 KMFL 301745
TAFFLL
TAF
KFLL 301745Z 3018/3118 17012G19KT P6SM VCSH BKN030 BKN045
     FM310000 15010KT P6SM SHRA SCT030 BKN050=



000
FTUS42 KMFL 301745
TAFPBI
TAF
KPBI 301745Z 3018/3118 15017G24KT P6SM VCSH BKN040 OVC250
     FM310100 16012KT P6SM VCSH BKN035 OVC200=



000
FTUS42 KMFL 301745
TAFMIA
TAF
KMIA 301745Z 3018/3118 16013KT P6SM SHRA BKN060 OVC220
     FM310100 13009KT P6SM SHRA SCT030 BKN050=



000
FTUS42 KMFL 301600 AAB
TAFPBI
TAF AMD
KPBI 301600Z 3016/3112 13018KT P6SM VCSH SCT025 BKN045
     FM301800 15010KT P6SM SHRA VCTS SCT025CB BKN050=



000
FTUS42 KMFL 301600 AAB
TAFPBI
TAF AMD
KPBI 301600Z 3016/3112 13018KT P6SM VCSH SCT025 BKN045
     FM301800 15010KT P6SM SHRA VCTS SCT025CB BKN050=



000
FTUS42 KMFL 301519 AAA
TAFAPF
TAF AMD
KAPF 301519Z 3015/3112 07006KT P6SM VCSH SCT030 BKN070
     FM301700 10013KT P6SM SHRA VCTS SCT025CB BKN050
      TEMPO 3017/3021 VRB10G25KT 5SM TSRA SCT025CB BKN050
     FM310100 12007KT P6SM VCSH BKN040=



000
FTUS42 KMFL 301519 AAA
TAFPBI
TAF AMD
KPBI 301519Z 3015/3112 13018KT P6SM VCSH SCT025 BKN045
     FM302300 15010KT P6SM SHRA VCTS SCT025CB BKN050=



000
FTUS42 KMFL 301519 AAA
TAFAPF
TAF AMD
KAPF 301519Z 3015/3112 07006KT P6SM VCSH SCT030 BKN070
     FM301700 10013KT P6SM SHRA VCTS SCT025CB BKN050
      TEMPO 3017/3021 VRB10G25KT 5SM TSRA SCT025CB BKN050
     FM310100 12007KT P6SM VCSH BKN040=



000
FTUS42 KMFL 301519 AAA
TAFMIA
TAF AMD
KMIA 301519Z 3015/3112 08015KT P6SM VCSH SCT027 BKN050 BKN250
     FM301700 15015KT P6SM SHRA VCTS SCT025CB BKN050
     FM310000 13009KT P6SM VCTS SCT030CB BKN050=



000
FTUS42 KMFL 301519 AAA
TAFPBI
TAF AMD
KPBI 301519Z 3015/3112 13018KT P6SM VCSH SCT025 BKN045
     FM302300 15010KT P6SM SHRA VCTS SCT025CB BKN050=



000
FTUS42 KMFL 301519 AAA
TAFFLL
TAF AMD
KFLL 301519Z 3015/3112 14013KT P6SM VCSH SCT025 BKN040 BKN250
     FM301700 16017KT P6SM SHRA VCTS SCT025CB BKN050
     FM310000 15010KT P6SM SHRA VCTS SCT025CB BKN050=



000
FTUS42 KMFL 301519 AAA
TAFMIA
TAF AMD
KMIA 301519Z 3015/3112 08015KT P6SM VCSH SCT027 BKN050 BKN250
     FM301700 15015KT P6SM SHRA VCTS SCT025CB BKN050
     FM310000 13009KT P6SM VCTS SCT030CB BKN050=



000
FTUS42 KMFL 301519 AAA
TAFFLL
TAF AMD
KFLL 301519Z 3015/3112 14013KT P6SM VCSH SCT025 BKN040 BKN250
     FM301700 16017KT P6SM SHRA VCTS SCT025CB BKN050
     FM310000 15010KT P6SM SHRA VCTS SCT025CB BKN050=



000
FTUS42 KMFL 301138
TAFFLL
TAF
KFLL 301138Z 3012/3112 14013KT P6SM SHRA VCTS SCT025CB BKN040
      BKN250
     FM301700 16017KT P6SM SHRA VCTS SCT025CB BKN050
     FM310000 15010KT P6SM SHRA VCTS SCT025CB BKN050=



000
FTUS42 KMFL 301138
TAFPBI
TAF
KPBI 301138Z 3012/3112 13011KT P6SM SHRA VCTS SCT030CB BKN060
     FM301400 13020KT P6SM SHRA VCTS SCT025CB BKN045
     FM302300 15010KT P6SM SHRA VCTS SCT025CB BKN050=



000
FTUS42 KMFL 301138
TAFFLL
TAF
KFLL 301138Z 3012/3112 14013KT P6SM SHRA VCTS SCT025CB BKN040
      BKN250
     FM301700 16017KT P6SM SHRA VCTS SCT025CB BKN050
     FM310000 15010KT P6SM SHRA VCTS SCT025CB BKN050=



000
FTUS42 KMFL 301138
TAFMIA
TAF
KMIA 301138Z 3012/3112 08011KT P6SM VCTS SCT027CB BKN050 BKN250
      TEMPO 3012/3014 VRB15G30KT 4SM TSRA SCT025CB OVC050
     FM301700 15015KT P6SM SHRA VCTS SCT025CB BKN050
     FM310000 13009KT P6SM VCTS SCT030CB BKN050=



000
FTUS42 KMFL 301138
TAFAPF
TAF
KAPF 301138Z 3012/3112 07007KT P6SM SCT050
     FM301400 08012KT P6SM SHRA VCTS SCT030CB BKN070
     FM301700 10013KT P6SM SHRA VCTS SCT025CB BKN050
      TEMPO 3017/3021 VRB10G25KT 5SM TSRA SCT025CB BKN050
     FM310100 12007KT P6SM VCSH BKN040=



000
FTUS42 KMFL 301138
TAFMIA
TAF
KMIA 301138Z 3012/3112 08011KT P6SM VCTS SCT027CB BKN050 BKN250
      TEMPO 3012/3014 VRB15G30KT 4SM TSRA SCT025CB OVC050
     FM301700 15015KT P6SM SHRA VCTS SCT025CB BKN050
     FM310000 13009KT P6SM VCTS SCT030CB BKN050=



000
FTUS42 KMFL 301138
TAFAPF
TAF
KAPF 301138Z 3012/3112 07007KT P6SM SCT050
     FM301400 08012KT P6SM SHRA VCTS SCT030CB BKN070
     FM301700 10013KT P6SM SHRA VCTS SCT025CB BKN050
      TEMPO 3017/3021 VRB10G25KT 5SM TSRA SCT025CB BKN050
     FM310100 12007KT P6SM VCSH BKN040=



000
FTUS42 KMFL 300947 AAB
TAFMIA
TAF AMD
KMIA 300947Z 3010/3106 08010KT P6SM SHRA VCTS SCT020CB BKN050
      TEMPO 3010/3012 VRB15G30KT 1SM TSRA BR BKN025CB
     FM301400 14015KT P6SM SHRA VCTS SCT025CB BKN050
     FM301700 15015KT P6SM SHRA VCTS SCT025CB BKN050
     FM302300 14010KT P6SM SHRA VCTS SCT025CB PROB30 3023/3105
      VRB10G20KT TSRA BKN025CB=



000
FTUS42 KMFL 300947 AAB
TAFMIA
TAF AMD
KMIA 300947Z 3010/3106 08010KT P6SM SHRA VCTS SCT020CB BKN050
      TEMPO 3010/3012 VRB15G30KT 1SM TSRA BR BKN025CB
     FM301400 14015KT P6SM SHRA VCTS SCT025CB BKN050
     FM301700 15015KT P6SM SHRA VCTS SCT025CB BKN050
     FM302300 14010KT P6SM SHRA VCTS SCT025CB PROB30 3023/3105
      VRB10G20KT TSRA BKN025CB=



000
FTUS42 KMFL 300912 AAB
TAFPBI
TAF AMD
KPBI 300912Z 3009/3106 VRB10KT P6SM SHRA VCTS SCT015CB BKN045
      TEMPO 3009/3010 VRB15G25KT TSRA BKN030CB
     FM301400 13020KT P6SM SHRA VCTS SCT025CB BKN045
     FM302300 15010KT P6SM SHRA VCTS SCT025CB PROB30 3023/3105
      VRB10G20KT TSRA BKN025CB=



000
FTUS42 KMFL 300912 AAB
TAFPBI
TAF AMD
KPBI 300912Z 3009/3106 VRB10KT P6SM SHRA VCTS SCT015CB BKN045
      TEMPO 3009/3010 VRB15G25KT TSRA BKN030CB
     FM301400 13020KT P6SM SHRA VCTS SCT025CB BKN045
     FM302300 15010KT P6SM SHRA VCTS SCT025CB PROB30 3023/3105
      VRB10G20KT TSRA BKN025CB=



000
FTUS42 KMFL 300838 AAA
TAFFLL
TAF AMD
KFLL 300838Z 3009/3106 VRB10KT P6SM SHRA VCTS SCT020CB BKN050
     FM301400 15015KT P6SM SHRA VCTS SCT025CB BKN050
     FM301700 16020KT P6SM SHRA VCTS SCT025CB BKN050
     FM302300 15010KT P6SM SHRA VCTS SCT025CB PROB30 3023/3105
      VRB10G20KT TSRA BKN025CB=



000
FTUS42 KMFL 300838 AAA
TAFFLL
TAF AMD
KFLL 300838Z 3009/3106 VRB10KT P6SM SHRA VCTS SCT020CB BKN050
     FM301400 15015KT P6SM SHRA VCTS SCT025CB BKN050
     FM301700 16020KT P6SM SHRA VCTS SCT025CB BKN050
     FM302300 15010KT P6SM SHRA VCTS SCT025CB PROB30 3023/3105
      VRB10G20KT TSRA BKN025CB=



000
FTUS42 KMFL 300838 AAA
TAFPBI
TAF AMD
KPBI 300838Z 3009/3106 16012KT P6SM SHRA VCTS SCT015CB BKN045
     FM301400 13020KT P6SM SHRA VCTS SCT025CB BKN045
     FM302300 15010KT P6SM SHRA VCTS SCT025CB PROB30 3023/3105
      VRB10G20KT TSRA BKN025CB=



000
FTUS42 KMFL 300838 AAA
TAFPBI
TAF AMD
KPBI 300838Z 3009/3106 16012KT P6SM SHRA VCTS SCT015CB BKN045
     FM301400 13020KT P6SM SHRA VCTS SCT025CB BKN045
     FM302300 15010KT P6SM SHRA VCTS SCT025CB PROB30 3023/3105
      VRB10G20KT TSRA BKN025CB=



000
FTUS42 KMFL 300838 AAA
TAFAPF
TAF AMD
KAPF 300838Z 3009/3106 05008KT P6SM SCT025 BKN045
     FM301400 14012KT P6SM SHRA VCTS SCT030CB BKN070
     FM301700 16012KT P6SM SHRA VCTS SCT025CB BKN050
     FM302300 15010KT P6SM SHRA VCTS SCT025CB PROB30 3023/3105
      VRB10G20KT TSRA BKN025CB=



000
FTUS42 KMFL 300838 AAA
TAFMIA
TAF AMD
KMIA 300838Z 3009/3106 08010KT P6SM SHRA VCTS SCT020CB BKN050
     FM301400 14015KT P6SM SHRA VCTS SCT025CB BKN050
     FM301700 15015KT P6SM SHRA VCTS SCT025CB BKN050
     FM302300 14010KT P6SM SHRA VCTS SCT025CB PROB30 3023/3105
      VRB10G20KT TSRA BKN025CB=



000
FTUS42 KMFL 300838 AAA
TAFMIA
TAF AMD
KMIA 300838Z 3009/3106 08010KT P6SM SHRA VCTS SCT020CB BKN050
     FM301400 14015KT P6SM SHRA VCTS SCT025CB BKN050
     FM301700 15015KT P6SM SHRA VCTS SCT025CB BKN050
     FM302300 14010KT P6SM SHRA VCTS SCT025CB PROB30 3023/3105
      VRB10G20KT TSRA BKN025CB=



000
FTUS42 KMFL 300838 AAA
TAFAPF
TAF AMD
KAPF 300838Z 3009/3106 05008KT P6SM SCT025 BKN045
     FM301400 14012KT P6SM SHRA VCTS SCT030CB BKN070
     FM301700 16012KT P6SM SHRA VCTS SCT025CB BKN050
     FM302300 15010KT P6SM SHRA VCTS SCT025CB PROB30 3023/3105
      VRB10G20KT TSRA BKN025CB=



000
FTUS42 KMFL 300542
TAFPBI
TAF
KPBI 300542Z 3006/3106 11015KT P6SM SHRA VCTS SCT025CB BKN050
      TEMPO 3006/3008 VRB10G20KT TSRA BKN025CB
     FM301400 13020KT P6SM SHRA VCTS SCT025CB BKN050
     FM302300 15010KT P6SM SHRA VCTS SCT025CB PROB30 3023/3105
      VRB10G20KT TSRA BKN025CB=



000
FTUS42 KMFL 300542
TAFPBI
TAF
KPBI 300542Z 3006/3106 11015KT P6SM SHRA VCTS SCT025CB BKN050
      TEMPO 3006/3008 VRB10G20KT TSRA BKN025CB
     FM301400 13020KT P6SM SHRA VCTS SCT025CB BKN050
     FM302300 15010KT P6SM SHRA VCTS SCT025CB PROB30 3023/3105
      VRB10G20KT TSRA BKN025CB=



000
FTUS42 KMFL 300542
TAFAPF
TAF
KAPF 300542Z 3006/3106 03008KT P6SM SCT100 BKN200
     FM300800 06008KT P6SM SHRA VCTS SCT025CB BKN045
     FM301500 14012KT P6SM SHRA VCTS SCT030CB BKN070
     FM301700 16012KT P6SM SHRA VCTS SCT025CB BKN050 PROB30
      3017/3022 VRB15G25KT TSRA BKN025CB
     FM302300 15010KT P6SM SHRA VCTS SCT025CB PROB30 3023/3105
      VRB10G20KT TSRA BKN025CB=



000
FTUS42 KMFL 300542
TAFFLL
TAF
KFLL 300542Z 3006/3106 08012KT P6SM SHRA VCTS SCT020CB BKN050
      TEMPO 3006/3008 VRB10G25KT TSRA BKN025CB
     FM301400 15015KT P6SM SHRA VCTS SCT025CB BKN050
     FM301700 16020KT P6SM SHRA VCTS SCT025CB BKN050 PROB30
      3017/3023 VRB20G30KT TSRA BKN025CB
     FM302300 15010KT P6SM SHRA VCTS SCT025CB PROB30 3023/3105
      VRB10G20KT TSRA BKN025CB=



000
FTUS42 KMFL 300542
TAFAPF
TAF
KAPF 300542Z 3006/3106 03008KT P6SM SCT100 BKN200
     FM300800 06008KT P6SM SHRA VCTS SCT025CB BKN045
     FM301500 14012KT P6SM SHRA VCTS SCT030CB BKN070
     FM301700 16012KT P6SM SHRA VCTS SCT025CB BKN050 PROB30
      3017/3022 VRB15G25KT TSRA BKN025CB
     FM302300 15010KT P6SM SHRA VCTS SCT025CB PROB30 3023/3105
      VRB10G20KT TSRA BKN025CB=



000
FTUS42 KMFL 300542
TAFMIA
TAF
KMIA 300542Z 3006/3106 10010KT P6SM VCSH SCT025 SCT060 BKN250
      TEMPO 3006/3008 TSRA BKN035CB
     FM300800 11015KT P6SM SHRA VCTS SCT020CB BKN050
     FM301400 14015KT P6SM SHRA VCTS SCT025CB BKN050
     FM301700 15015KT P6SM SHRA VCTS SCT025CB BKN050 PROB30
      3017/3022 VRB15G25KT TSRA BKN025CB
     FM302300 14010KT P6SM SHRA VCTS SCT025CB PROB30 3023/3105
      VRB10G20KT TSRA BKN025CB=



000
FTUS42 KMFL 300542
TAFMIA
TAF
KMIA 300542Z 3006/3106 10010KT P6SM VCSH SCT025 SCT060 BKN250
      TEMPO 3006/3008 TSRA BKN035CB
     FM300800 11015KT P6SM SHRA VCTS SCT020CB BKN050
     FM301400 14015KT P6SM SHRA VCTS SCT025CB BKN050
     FM301700 15015KT P6SM SHRA VCTS SCT025CB BKN050 PROB30
      3017/3022 VRB15G25KT TSRA BKN025CB
     FM302300 14010KT P6SM SHRA VCTS SCT025CB PROB30 3023/3105
      VRB10G20KT TSRA BKN025CB=



000
FTUS42 KMFL 300542
TAFFLL
TAF
KFLL 300542Z 3006/3106 08012KT P6SM SHRA VCTS SCT020CB BKN050
      TEMPO 3006/3008 VRB10G25KT TSRA BKN025CB
     FM301400 15015KT P6SM SHRA VCTS SCT025CB BKN050
     FM301700 16020KT P6SM SHRA VCTS SCT025CB BKN050 PROB30
      3017/3023 VRB20G30KT TSRA BKN025CB
     FM302300 15010KT P6SM SHRA VCTS SCT025CB PROB30 3023/3105
      VRB10G20KT TSRA BKN025CB=



000
FTUS42 KMFL 300444 AAC
TAFPBI
TAF AMD
KPBI 300444Z 3005/3024 08010KT P6SM SHRA VCTS SCT035CB BKN070
     FM300600 10015KT P6SM SHRA VCTS SCT025CB BKN050 BKN200
     FM301400 13020KT P6SM SHRA VCTS SCT025CB BKN050=



000
FTUS42 KMFL 300444 AAC
TAFPBI
TAF AMD
KPBI 300444Z 3005/3024 08010KT P6SM SHRA VCTS SCT035CB BKN070
     FM300600 10015KT P6SM SHRA VCTS SCT025CB BKN050 BKN200
     FM301400 13020KT P6SM SHRA VCTS SCT025CB BKN050=



000
FTUS42 KMFL 300444 AAC
TAFPBI
TAF AMD
KPBI 300444Z 3005/3024 08010KT P6SM SHRA VCTS SCT035CB BKN070
     FM300600 10015KT P6SM SHRA VCTS SCT025CB BKN050 BKN200
     FM301400 13020KT P6SM SHRA VCTS SCT025CB BKN050=



000
FTUS42 KMFL 300443 AAB
TAFFLL
TAF AMD
KFLL 300443Z 3005/3024 08010KT P6SM SHRA VCTS SCT025CB SCT100
      BKN200
     FM300600 11015KT P6SM SHRA VCTS SCT020CB BKN050 BKN200
     FM301500 14020KT P6SM SHRA VCTS SCT025CB BKN050=



000
FTUS42 KMFL 300443 AAB
TAFFLL
TAF AMD
KFLL 300443Z 3005/3024 08010KT P6SM SHRA VCTS SCT025CB SCT100
      BKN200
     FM300600 11015KT P6SM SHRA VCTS SCT020CB BKN050 BKN200
     FM301500 14020KT P6SM SHRA VCTS SCT025CB BKN050=



000
FTUS42 KMFL 300440 AAC
TAFMIA
TAF AMD
KMIA 300440Z 3005/3024 10010KT P6SM VCSH SCT025 SCT060 BKN250
      TEMPO 3005/3007 TSRA BKN035CB
     FM300700 10015KT P6SM SHRA VCTS SCT020CB BKN050
     FM301400 14020KT P6SM SHRA VCTS SCT025CB BKN050=



000
FTUS42 KMFL 300440 AAC
TAFMIA
TAF AMD
KMIA 300440Z 3005/3024 10010KT P6SM VCSH SCT025 SCT060 BKN250
      TEMPO 3005/3007 TSRA BKN035CB
     FM300700 10015KT P6SM SHRA VCTS SCT020CB BKN050
     FM301400 14020KT P6SM SHRA VCTS SCT025CB BKN050=



000
FTUS42 KMFL 300331 AAB
TAFPBI
TAF AMD
KPBI 300331Z 3004/3024 10015KT P6SM SHRA VCTS SCT025CB BKN060
      BKN200
     FM300600 10015KT P6SM SHRA VCTS SCT025CB BKN050 BKN200
     FM301400 13020KT P6SM SHRA VCTS SCT025CB BKN050=



000
FTUS42 KMFL 300331 AAB
TAFPBI
TAF AMD
KPBI 300331Z 3004/3024 10015KT P6SM SHRA VCTS SCT025CB BKN060
      BKN200
     FM300600 10015KT P6SM SHRA VCTS SCT025CB BKN050 BKN200
     FM301400 13020KT P6SM SHRA VCTS SCT025CB BKN050=



000
FTUS42 KMFL 300225 AAA
TAFFLL
TAF AMD
KFLL 300225Z 3002/3024 10012KT P6SM SHRA VCTS SCT025CB SCT100
      BKN200
     FM300600 11015KT P6SM SHRA VCTS SCT020CB BKN050 BKN200
     FM301500 14020KT P6SM SHRA VCTS SCT025CB BKN050=



000
FTUS42 KMFL 300225 AAA
TAFFLL
TAF AMD
KFLL 300225Z 3002/3024 10012KT P6SM SHRA VCTS SCT025CB SCT100
      BKN200
     FM300600 11015KT P6SM SHRA VCTS SCT020CB BKN050 BKN200
     FM301500 14020KT P6SM SHRA VCTS SCT025CB BKN050=



000
FTUS42 KMFL 300225 AAB
TAFMIA
TAF AMD
KMIA 300225Z 3002/3024 10010KT P6SM SHRA VCTS SCT025CB BKN050
      OVC250
      TEMPO 3002/3003 VRB20KT 4SM TSRA BKN025CB BKN040
     FM300300 10010KT P6SM VCSH SCT025 SCT060 BKN250
     FM300600 10015KT P6SM SHRA VCTS SCT020CB BKN050
     FM301400 14020KT P6SM SHRA VCTS SCT025CB BKN050=



000
FTUS42 KMFL 300225 AAA
TAFAPF
TAF AMD
KAPF 300225Z 3002/3024 03008KT P6SM SHRA SCT040 SCT100 BKN200
     FM301500 10012KT P6SM SHRA VCTS SCT030CB BKN070=



000
FTUS42 KMFL 300225 AAB
TAFMIA
TAF AMD
KMIA 300225Z 3002/3024 10010KT P6SM SHRA VCTS SCT025CB BKN050
      OVC250
      TEMPO 3002/3003 VRB20KT 4SM TSRA BKN025CB BKN040
     FM300300 10010KT P6SM VCSH SCT025 SCT060 BKN250
     FM300600 10015KT P6SM SHRA VCTS SCT020CB BKN050
     FM301400 14020KT P6SM SHRA VCTS SCT025CB BKN050=



000
FTUS42 KMFL 300225 AAA
TAFPBI
TAF AMD
KPBI 300225Z 3002/3024 10015KT P6SM VCSH SCT025 BKN060 BKN200
     FM300600 10015KT P6SM SHRA VCTS SCT025CB BKN050 BKN200
     FM301400 13020KT P6SM SHRA VCTS SCT025CB BKN050=



000
FTUS42 KMFL 300225 AAA
TAFPBI
TAF AMD
KPBI 300225Z 3002/3024 10015KT P6SM VCSH SCT025 BKN060 BKN200
     FM300600 10015KT P6SM SHRA VCTS SCT025CB BKN050 BKN200
     FM301400 13020KT P6SM SHRA VCTS SCT025CB BKN050=



000
FTUS42 KMFL 300225 AAA
TAFAPF
TAF AMD
KAPF 300225Z 3002/3024 03008KT P6SM SHRA SCT040 SCT100 BKN200
     FM301500 10012KT P6SM SHRA VCTS SCT030CB BKN070=



000
FTUS42 KMFL 300149 AAA
TAFMIA
TAF AMD
KMIA 300149Z 3002/3024 10009KT P6SM VCTS SCT025CB BKN050 OVC250
      TEMPO 3002/3003 VRB20G28KT 4SM TSRA BKN025CB BKN040
     FM300300 10009KT P6SM VCSH SCT025 SCT060 BKN250
     FM300600 10012G18KT P6SM VCTS SCT020CB BKN050
     FM301400 14015G24KT P6SM VCTS SCT025CB BKN050=



000
FTUS42 KMFL 300149 AAA
TAFMIA
TAF AMD
KMIA 300149Z 3002/3024 10009KT P6SM VCTS SCT025CB BKN050 OVC250
      TEMPO 3002/3003 VRB20G28KT 4SM TSRA BKN025CB BKN040
     FM300300 10009KT P6SM VCSH SCT025 SCT060 BKN250
     FM300600 10012G18KT P6SM VCTS SCT020CB BKN050
     FM301400 14015G24KT P6SM VCTS SCT025CB BKN050=



000
FTUS42 KMFL 300149 AAA
TAFMIA
TAF AMD
KMIA 300149Z 3002/3024 10009KT P6SM VCTS SCT025CB BKN050 OVC250
      TEMPO 3002/3003 VRB20G28KT 4SM TSRA BKN025CB BKN040
     FM300300 10009KT P6SM VCSH SCT025 SCT060 BKN250
     FM300600 10012G18KT P6SM VCTS SCT020CB BKN050
     FM301400 14015G24KT P6SM VCTS SCT025CB BKN050=



000
FTUS42 KMFL 300149 AAA
TAFMIA
TAF AMD
KMIA 300149Z 3002/3024 10009KT P6SM VCTS SCT025CB BKN050 OVC250
      TEMPO 3002/3003 VRB20G28KT 4SM TSRA BKN025CB BKN040
     FM300300 10009KT P6SM VCSH SCT025 SCT060 BKN250
     FM300600 10012G18KT P6SM VCTS SCT020CB BKN050
     FM301400 14015G24KT P6SM VCTS SCT025CB BKN050=



000
FTUS42 KMFL 292344
TAFPBI
TAF
KPBI 292344Z 3000/3024 10014G20KT P6SM VCSH SCT020 BKN060 BKN200
     FM300600 10013G20KT P6SM VCTS SCT025CB BKN050 BKN200
     FM301400 13018G26KT P6SM VCTS SCT025CB BKN050=



000
FTUS42 KMFL 292344
TAFFLL
TAF
KFLL 292344Z 3000/3024 10014G20KT P6SM VCSH SCT025 SCT100 BKN200
     FM300600 11014G22KT P6SM VCTS SCT020CB BKN050 BKN200
     FM301500 14018G25KT P6SM VCTS SCT025CB BKN050=



000
FTUS42 KMFL 292344
TAFMIA
TAF
KMIA 292344Z 3000/3024 10012KT P6SM VCSH SCT030 BKN080 BKN250
     FM300600 10012G18KT P6SM VCTS SCT020CB BKN050
     FM301400 14015G24KT P6SM VCTS SCT025CB BKN050=



000
FTUS42 KMFL 292344
TAFAPF
TAF
KAPF 292344Z 3000/3024 VRB05KT 5SM -SHRA SCT025 SCT040 BKN100
     FM300100 08006KT P6SM VCSH SCT040 SCT100 BKN200
     FM301500 10010G17KT P6SM VCTS SCT030CB BKN070=



000
FTUS42 KMFL 292344
TAFFLL
TAF
KFLL 292344Z 3000/3024 10014G20KT P6SM VCSH SCT025 SCT100 BKN200
     FM300600 11014G22KT P6SM VCTS SCT020CB BKN050 BKN200
     FM301500 14018G25KT P6SM VCTS SCT025CB BKN050=



000
FTUS42 KMFL 292344
TAFPBI
TAF
KPBI 292344Z 3000/3024 10014G20KT P6SM VCSH SCT020 BKN060 BKN200
     FM300600 10013G20KT P6SM VCTS SCT025CB BKN050 BKN200
     FM301400 13018G26KT P6SM VCTS SCT025CB BKN050=



000
FTUS42 KMFL 292344
TAFAPF
TAF
KAPF 292344Z 3000/3024 VRB05KT 5SM -SHRA SCT025 SCT040 BKN100
     FM300100 08006KT P6SM VCSH SCT040 SCT100 BKN200
     FM301500 10010G17KT P6SM VCTS SCT030CB BKN070=



000
FTUS42 KMFL 292344
TAFMIA
TAF
KMIA 292344Z 3000/3024 10012KT P6SM VCSH SCT030 BKN080 BKN250
     FM300600 10012G18KT P6SM VCTS SCT020CB BKN050
     FM301400 14015G24KT P6SM VCTS SCT025CB BKN050=



000
FTUS42 KMFL 292149 AAC
TAFAPF
TAF AMD
KAPF 292149Z 2922/3018 VRB06G15KT P6SM VCTS SCT027CB BKN050 BKN100
      TEMPO 2922/2923 VRB10G20KT 2SM SHRA BKN025 BKN040 BKN080
     FM300200 08006KT P6SM VCSH BKN050=



000
FTUS42 KMFL 292149 AAC
TAFAPF
TAF AMD
KAPF 292149Z 2922/3018 VRB06G15KT P6SM VCTS SCT027CB BKN050 BKN100
      TEMPO 2922/2923 VRB10G20KT 2SM SHRA BKN025 BKN040 BKN080
     FM300200 08006KT P6SM VCSH BKN050=



000
FTUS42 KMFL 292109 AAB
TAFAPF
TAF AMD
KAPF 292109Z 2921/3018 VRB06G15KT P6SM VCTS SCT027CB BKN050 BKN100
      TEMPO 2921/2923 VRB20G28KT 4SM TSRA BKN025CB BKN040 BKN080
     FM300200 08006KT P6SM VCSH BKN050=



000
FTUS42 KMFL 292109 AAB
TAFAPF
TAF AMD
KAPF 292109Z 2921/3018 VRB06G15KT P6SM VCTS SCT027CB BKN050 BKN100
      TEMPO 2921/2923 VRB20G28KT 4SM TSRA BKN025CB BKN040 BKN080
     FM300200 08006KT P6SM VCSH BKN050=



000
FTUS42 KMFL 292109 AAB
TAFAPF
TAF AMD
KAPF 292109Z 2921/3018 VRB06G15KT P6SM VCTS SCT027CB BKN050 BKN100
      TEMPO 2921/2923 VRB20G28KT 4SM TSRA BKN025CB BKN040 BKN080
     FM300200 08006KT P6SM VCSH BKN050=



000
FTUS42 KMFL 292109 AAB
TAFAPF
TAF AMD
KAPF 292109Z 2921/3018 VRB06G15KT P6SM VCTS SCT027CB BKN050 BKN100
      TEMPO 2921/2923 VRB20G28KT 4SM TSRA BKN025CB BKN040 BKN080
     FM300200 08006KT P6SM VCSH BKN050=



000
FTUS42 KMFL 292041 AAB
TAFMIA
TAF AMD
KMIA 292041Z 2921/3018 09015G21KT P6SM VCSH SCT030 BKN050 BKN250
     FM300300 10012G20KT P6SM VCTS SCT020CB BKN050=



000
FTUS42 KMFL 292041 AAB
TAFMIA
TAF AMD
KMIA 292041Z 2921/3018 09015G21KT P6SM VCSH SCT030 BKN050 BKN250
     FM300300 10012G20KT P6SM VCTS SCT020CB BKN050=



000
FTUS42 KMFL 292033 AAB
TAFFLL
TAF AMD
KFLL 292033Z 2921/3018 09013G20KT P6SM VCSH SCT025 BKN050 BKN100
     FM300200 11013G22KT P6SM VCTS SCT020 BKN050CB=



000
FTUS42 KMFL 292033 AAB
TAFFLL
TAF AMD
KFLL 292033Z 2921/3018 09013G20KT P6SM VCSH SCT025 BKN050 BKN100
     FM300200 11013G22KT P6SM VCTS SCT020 BKN050CB=



000
FTUS42 KMFL 292033 AAB
TAFFLL
TAF AMD
KFLL 292033Z 2921/3018 09013G20KT P6SM VCSH SCT025 BKN050 BKN100
     FM300200 11013G22KT P6SM VCTS SCT020 BKN050CB=



000
FTUS42 KMFL 292033 AAB
TAFFLL
TAF AMD
KFLL 292033Z 2921/3018 09013G20KT P6SM VCSH SCT025 BKN050 BKN100
     FM300200 11013G22KT P6SM VCTS SCT020 BKN050CB=



000
FTUS42 KMFL 292023 AAC
TAFPBI
TAF AMD
KPBI 292023Z 2920/3018 09014G20KT P6SM VCTS SCT020CB BKN035 BKN200
     FM300300 11013G20KT P6SM VCTS SCT025CB BKN050=



000
FTUS42 KMFL 292023 AAC
TAFPBI
TAF AMD
KPBI 292023Z 2920/3018 09014G20KT P6SM VCTS SCT020CB BKN035 BKN200
     FM300300 11013G20KT P6SM VCTS SCT025CB BKN050=



000
FTUS42 KMFL 291906 AAA
TAFAPF
TAF AMD
KAPF 291906Z 2919/3018 VRB20G30KT P6SM VCTS SCT040CB BKN070
      TEMPO 2919/2920 VRB25G35KT 2SM TSRA SCT020 BKN029CB BKN050
     FM292000 VRB10G20KT P6SM VCTS SCT020CB BKN050
     FM300200 08006KT P6SM VCSH BKN050=



000
FTUS42 KMFL 291906 AAA
TAFAPF
TAF AMD
KAPF 291906Z 2919/3018 VRB20G30KT P6SM VCTS SCT040CB BKN070
      TEMPO 2919/2920 VRB25G35KT 2SM TSRA SCT020 BKN029CB BKN050
     FM292000 VRB10G20KT P6SM VCTS SCT020CB BKN050
     FM300200 08006KT P6SM VCSH BKN050=



000
FTUS42 KMFL 291906 AAA
TAFAPF
TAF AMD
KAPF 291906Z 2919/3018 VRB20G30KT P6SM VCTS SCT040CB BKN070
      TEMPO 2919/2920 VRB25G35KT 2SM TSRA SCT020 BKN029CB BKN050
     FM292000 VRB10G20KT P6SM VCTS SCT020CB BKN050
     FM300200 08006KT P6SM VCSH BKN050=



000
FTUS42 KMFL 291906 AAA
TAFAPF
TAF AMD
KAPF 291906Z 2919/3018 VRB20G30KT P6SM VCTS SCT040CB BKN070
      TEMPO 2919/2920 VRB25G35KT 2SM TSRA SCT020 BKN029CB BKN050
     FM292000 VRB10G20KT P6SM VCTS SCT020CB BKN050
     FM300200 08006KT P6SM VCSH BKN050=



000
FTUS42 KMFL 291821 AAB
TAFPBI
TAF AMD
KPBI 291821Z 2918/3018 10018G25KT P6SM VCTS SCT024CB BKN035 BKN250
     FM292200 08015G22KT P6SM OVC060
     FM300200 09011KT P6SM VCTS BKN050CB=



000
FTUS42 KMFL 291821 AAB
TAFPBI
TAF AMD
KPBI 291821Z 2918/3018 10018G25KT P6SM VCTS SCT024CB BKN035 BKN250
     FM292200 08015G22KT P6SM OVC060
     FM300200 09011KT P6SM VCTS BKN050CB=



000
FTUS42 KMFL 291821 AAB
TAFPBI
TAF AMD
KPBI 291821Z 2918/3018 10018G25KT P6SM VCTS SCT024CB BKN035 BKN250
     FM292200 08015G22KT P6SM OVC060
     FM300200 09011KT P6SM VCTS BKN050CB=



000
FTUS42 KMFL 291821 AAB
TAFPBI
TAF AMD
KPBI 291821Z 2918/3018 10018G25KT P6SM VCTS SCT024CB BKN035 BKN250
     FM292200 08015G22KT P6SM OVC060
     FM300200 09011KT P6SM VCTS BKN050CB=



    US Dept of Commerce
    National Oceanic and Atmospheric Administration
    National Weather Service
    1325 East West Highway
    Silver Spring, MD 20910
    Page Author: NWS Internet Services Team
Disclaimer
Information Quality
Credits
Glossary
Privacy Policy
Freedom of Information Act (FOIA)
About Us
Career Opportunities